<?xml version="1.0" encoding="UTF-8" standalone="yes"?>
<gpx xmlns="http://www.topografix.com/GPX/1/1" xmlns:xsi="http://www.w3.org/2001/XMLSchema-instance" version="1.1" creator="MagicMaps Tour Explorer" xsi:schemaLocation="http://www.topografix.com/GPX/1/1 http://www.topografix.com/GPX/1/1/gpx.xsd">
  <trk>
    <name>hochplatte-ammer-s</name>
    <trkseg>
      <trkpt lat="47.532163141" lon="10.858838959">
        <ele>1116.7</ele>
        <time>2022-06-14T07:15:51Z</time>
      </trkpt>
      <trkpt lat="47.532168590" lon="10.858851364">
        <ele>1119.6</ele>
        <time>2022-06-14T07:16:56Z</time>
      </trkpt>
      <trkpt lat="47.532333797" lon="10.858576605">
        <ele>1121.0</ele>
        <time>2022-06-14T07:18:33Z</time>
      </trkpt>
      <trkpt lat="47.532397332" lon="10.858085593">
        <ele>1122.0</ele>
        <time>2022-06-14T07:19:00Z</time>
      </trkpt>
      <trkpt lat="47.532420885" lon="10.857722573">
        <ele>1123.0</ele>
        <time>2022-06-14T07:19:20Z</time>
      </trkpt>
      <trkpt lat="47.532419292" lon="10.857460974">
        <ele>1123.9</ele>
        <time>2022-06-14T07:19:34Z</time>
      </trkpt>
      <trkpt lat="47.532387022" lon="10.857191747">
        <ele>1124.4</ele>
        <time>2022-06-14T07:19:48Z</time>
      </trkpt>
      <trkpt lat="47.532287529" lon="10.856672237">
        <ele>1124.9</ele>
        <time>2022-06-14T07:20:15Z</time>
      </trkpt>
      <trkpt lat="47.532309657" lon="10.856592609">
        <ele>1124.9</ele>
        <time>2022-06-14T07:20:20Z</time>
      </trkpt>
      <trkpt lat="47.532320134" lon="10.856284322">
        <ele>1125.8</ele>
        <time>2022-06-14T07:20:36Z</time>
      </trkpt>
      <trkpt lat="47.532372521" lon="10.855656266">
        <ele>1127.3</ele>
        <time>2022-06-14T07:21:09Z</time>
      </trkpt>
      <trkpt lat="47.532417448" lon="10.855337335">
        <ele>1128.2</ele>
        <time>2022-06-14T07:21:27Z</time>
      </trkpt>
      <trkpt lat="47.532588439" lon="10.854871049">
        <ele>1129.2</ele>
        <time>2022-06-14T07:22:02Z</time>
      </trkpt>
      <trkpt lat="47.532557342" lon="10.854834169">
        <ele>1130.2</ele>
        <time>2022-06-14T07:22:23Z</time>
      </trkpt>
      <trkpt lat="47.532533370" lon="10.854883455">
        <ele>1130.2</ele>
        <time>2022-06-14T07:22:50Z</time>
      </trkpt>
      <trkpt lat="47.532561198" lon="10.854819333">
        <ele>1130.2</ele>
        <time>2022-06-14T07:23:07Z</time>
      </trkpt>
      <trkpt lat="47.532617943" lon="10.854558321">
        <ele>1131.1</ele>
        <time>2022-06-14T07:23:22Z</time>
      </trkpt>
      <trkpt lat="47.532707378" lon="10.853811409">
        <ele>1131.6</ele>
        <time>2022-06-14T07:24:00Z</time>
      </trkpt>
      <trkpt lat="47.532732356" lon="10.853747120">
        <ele>1131.6</ele>
        <time>2022-06-14T07:24:04Z</time>
      </trkpt>
      <trkpt lat="47.532769153" lon="10.853779893">
        <ele>1131.6</ele>
        <time>2022-06-14T07:24:16Z</time>
      </trkpt>
      <trkpt lat="47.532804189" lon="10.853851810">
        <ele>1131.6</ele>
        <time>2022-06-14T07:24:25Z</time>
      </trkpt>
      <trkpt lat="47.533031339" lon="10.854007127">
        <ele>1133.5</ele>
        <time>2022-06-14T07:25:18Z</time>
      </trkpt>
      <trkpt lat="47.533295620" lon="10.854008384">
        <ele>1135.0</ele>
        <time>2022-06-14T07:25:44Z</time>
      </trkpt>
      <trkpt lat="47.533494523" lon="10.853934372">
        <ele>1135.9</ele>
        <time>2022-06-14T07:25:59Z</time>
      </trkpt>
      <trkpt lat="47.533707675" lon="10.853788611">
        <ele>1137.4</ele>
        <time>2022-06-14T07:26:17Z</time>
      </trkpt>
      <trkpt lat="47.533935076" lon="10.853759861">
        <ele>1138.8</ele>
        <time>2022-06-14T07:26:34Z</time>
      </trkpt>
      <trkpt lat="47.534160968" lon="10.853652321">
        <ele>1139.3</ele>
        <time>2022-06-14T07:26:51Z</time>
      </trkpt>
      <trkpt lat="47.534380859" lon="10.853511096">
        <ele>1128.2</ele>
        <time>2022-06-14T07:27:09Z</time>
      </trkpt>
      <trkpt lat="47.534572936" lon="10.853318559">
        <ele>1129.5</ele>
        <time>2022-06-14T07:27:39Z</time>
      </trkpt>
      <trkpt lat="47.534691565" lon="10.853216443">
        <ele>1130.6</ele>
        <time>2022-06-14T07:27:54Z</time>
      </trkpt>
      <trkpt lat="47.534873681" lon="10.852943128">
        <ele>1144.1</ele>
        <time>2022-06-14T07:28:13Z</time>
      </trkpt>
      <trkpt lat="47.535260090" lon="10.852558826">
        <ele>1134.7</ele>
        <time>2022-06-14T07:28:50Z</time>
      </trkpt>
      <trkpt lat="47.535331165" lon="10.852458486">
        <ele>1147.0</ele>
        <time>2022-06-14T07:28:59Z</time>
      </trkpt>
      <trkpt lat="47.535424757" lon="10.852391892">
        <ele>1136.0</ele>
        <time>2022-06-14T07:29:04Z</time>
      </trkpt>
      <trkpt lat="47.535587922" lon="10.852317916">
        <ele>1138.6</ele>
        <time>2022-06-14T07:29:19Z</time>
      </trkpt>
      <trkpt lat="47.535751302" lon="10.852230659">
        <ele>1141.0</ele>
        <time>2022-06-14T07:30:05Z</time>
      </trkpt>
      <trkpt lat="47.535914037" lon="10.852183242">
        <ele>1142.6</ele>
        <time>2022-06-14T07:30:48Z</time>
      </trkpt>
      <trkpt lat="47.536175699" lon="10.852139309">
        <ele>1144.5</ele>
        <time>2022-06-14T07:31:21Z</time>
      </trkpt>
      <trkpt lat="47.536420017" lon="10.852054902">
        <ele>1145.8</ele>
        <time>2022-06-14T07:31:47Z</time>
      </trkpt>
      <trkpt lat="47.536564552" lon="10.852020130">
        <ele>1149.6</ele>
        <time>2022-06-14T07:32:11Z</time>
      </trkpt>
      <trkpt lat="47.536762403" lon="10.852027100">
        <ele>1154.5</ele>
        <time>2022-06-14T07:32:21Z</time>
      </trkpt>
      <trkpt lat="47.536916145" lon="10.851979364">
        <ele>1157.4</ele>
      </trkpt>
      <trkpt lat="47.537078238" lon="10.851971786">
        <ele>1159.1</ele>
      </trkpt>
      <trkpt lat="47.537223202" lon="10.851910453">
        <ele>1160.8</ele>
      </trkpt>
      <trkpt lat="47.537413346" lon="10.851837423">
        <ele>1166.3</ele>
      </trkpt>
      <trkpt lat="47.537466876" lon="10.851865884">
        <ele>1167.3</ele>
        <time>2022-06-14T07:39:09Z</time>
      </trkpt>
      <trkpt lat="47.537520836" lon="10.851867785">
        <ele>1169.6</ele>
        <time>2022-06-14T07:39:22Z</time>
      </trkpt>
      <trkpt lat="47.537575009" lon="10.851856405">
        <ele>1172.6</ele>
        <time>2022-06-14T07:39:35Z</time>
      </trkpt>
      <trkpt lat="47.537594068" lon="10.851790637">
        <ele>1175.9</ele>
        <time>2022-06-14T07:39:47Z</time>
      </trkpt>
      <trkpt lat="47.537631998" lon="10.851727333">
        <ele>1188.3</ele>
        <time>2022-06-14T07:40:20Z</time>
      </trkpt>
      <trkpt lat="47.537816484" lon="10.851744851">
        <ele>1193.6</ele>
        <time>2022-06-14T07:41:47Z</time>
      </trkpt>
      <trkpt lat="47.537830733" lon="10.851721549">
        <ele>1193.6</ele>
        <time>2022-06-14T07:42:21Z</time>
      </trkpt>
      <trkpt lat="47.537778430" lon="10.851618703">
        <ele>1197.0</ele>
        <time>2022-06-14T07:42:49Z</time>
      </trkpt>
      <trkpt lat="47.537840875" lon="10.851616859">
        <ele>1199.9</ele>
        <time>2022-06-14T07:43:03Z</time>
      </trkpt>
      <trkpt lat="47.537864763" lon="10.851513594">
        <ele>1204.2</ele>
        <time>2022-06-14T07:43:27Z</time>
      </trkpt>
      <trkpt lat="47.537935590" lon="10.851495657">
        <ele>1207.1</ele>
        <time>2022-06-14T07:43:42Z</time>
      </trkpt>
      <trkpt lat="47.538088728" lon="10.851583332">
        <ele>1209.0</ele>
        <time>2022-06-14T07:44:09Z</time>
      </trkpt>
      <trkpt lat="47.538274219" lon="10.851646280">
        <ele>1210.9</ele>
        <time>2022-06-14T07:44:37Z</time>
      </trkpt>
      <trkpt lat="47.538416544" lon="10.851655584">
        <ele>1212.8</ele>
        <time>2022-06-14T07:44:54Z</time>
      </trkpt>
      <trkpt lat="47.538515953" lon="10.851741834">
        <ele>1218.6</ele>
        <time>2022-06-14T07:45:24Z</time>
      </trkpt>
      <trkpt lat="47.538653836" lon="10.851778379">
        <ele>1222.0</ele>
        <time>2022-06-14T07:45:56Z</time>
      </trkpt>
      <trkpt lat="47.538630869" lon="10.851700427">
        <ele>1223.9</ele>
        <time>2022-06-14T07:46:13Z</time>
      </trkpt>
      <trkpt lat="47.538721813" lon="10.851674024">
        <ele>1228.7</ele>
        <time>2022-06-14T07:46:44Z</time>
      </trkpt>
      <trkpt lat="47.538838238" lon="10.851722974">
        <ele>1233.0</ele>
        <time>2022-06-14T07:47:15Z</time>
      </trkpt>
      <trkpt lat="47.538888277" lon="10.851704031">
        <ele>1235.0</ele>
        <time>2022-06-14T07:47:27Z</time>
      </trkpt>
      <trkpt lat="47.539173262" lon="10.851818025">
        <ele>1241.2</ele>
        <time>2022-06-14T07:48:16Z</time>
      </trkpt>
      <trkpt lat="47.539199581" lon="10.851746947">
        <ele>1244.1</ele>
        <time>2022-06-14T07:48:34Z</time>
      </trkpt>
      <trkpt lat="47.539319610" lon="10.851802854">
        <ele>1248.9</ele>
        <time>2022-06-14T07:49:04Z</time>
      </trkpt>
      <trkpt lat="47.539317850" lon="10.851732613">
        <ele>1251.8</ele>
        <time>2022-06-14T07:49:20Z</time>
      </trkpt>
      <trkpt lat="47.539444082" lon="10.851726746">
        <ele>1255.6</ele>
        <time>2022-06-14T07:49:43Z</time>
      </trkpt>
      <trkpt lat="47.539671985" lon="10.851800758">
        <ele>1258.5</ele>
        <time>2022-06-14T07:50:20Z</time>
      </trkpt>
      <trkpt lat="47.539701993" lon="10.851886254">
        <ele>1260.4</ele>
        <time>2022-06-14T07:50:47Z</time>
      </trkpt>
      <trkpt lat="47.539896537" lon="10.851831939">
        <ele>1260.4</ele>
        <time>2022-06-14T07:51:16Z</time>
      </trkpt>
      <trkpt lat="47.539989324" lon="10.851983568">
        <ele>1263.8</ele>
        <time>2022-06-14T07:51:46Z</time>
      </trkpt>
      <trkpt lat="47.540022768" lon="10.852008630">
        <ele>1266.2</ele>
        <time>2022-06-14T07:52:00Z</time>
      </trkpt>
      <trkpt lat="47.540027713" lon="10.851896731">
        <ele>1269.1</ele>
        <time>2022-06-14T07:52:17Z</time>
      </trkpt>
      <trkpt lat="47.540059313" lon="10.851889020">
        <ele>1271.0</ele>
        <time>2022-06-14T07:52:31Z</time>
      </trkpt>
      <trkpt lat="47.540122345" lon="10.852046013">
        <ele>1275.8</ele>
        <time>2022-06-14T07:53:02Z</time>
      </trkpt>
      <trkpt lat="47.540222593" lon="10.852159336">
        <ele>1277.7</ele>
        <time>2022-06-14T07:53:21Z</time>
      </trkpt>
      <trkpt lat="47.540265340" lon="10.852126647">
        <ele>1280.1</ele>
        <time>2022-06-14T07:53:36Z</time>
      </trkpt>
      <trkpt lat="47.540334240" lon="10.852161599">
        <ele>1283.0</ele>
        <time>2022-06-14T07:53:51Z</time>
      </trkpt>
      <trkpt lat="47.540447898" lon="10.852160426">
        <ele>1285.4</ele>
        <time>2022-06-14T07:54:07Z</time>
      </trkpt>
      <trkpt lat="47.540531466" lon="10.852199988">
        <ele>1287.3</ele>
        <time>2022-06-14T07:54:23Z</time>
      </trkpt>
      <trkpt lat="47.540646885" lon="10.852210466">
        <ele>1289.3</ele>
        <time>2022-06-14T07:54:41Z</time>
      </trkpt>
      <trkpt lat="47.540717209" lon="10.852179537">
        <ele>1291.7</ele>
        <time>2022-06-14T07:54:56Z</time>
      </trkpt>
      <trkpt lat="47.540803291" lon="10.852040397">
        <ele>1292.6</ele>
        <time>2022-06-14T07:55:15Z</time>
      </trkpt>
      <trkpt lat="47.540927343" lon="10.851917351">
        <ele>1297.0</ele>
        <time>2022-06-14T07:55:44Z</time>
      </trkpt>
      <trkpt lat="47.540973024" lon="10.851806709">
        <ele>1298.9</ele>
        <time>2022-06-14T07:55:59Z</time>
      </trkpt>
      <trkpt lat="47.541053826" lon="10.851698583">
        <ele>1301.8</ele>
        <time>2022-06-14T07:56:18Z</time>
      </trkpt>
      <trkpt lat="47.541125910" lon="10.851702606">
        <ele>1303.2</ele>
        <time>2022-06-14T07:56:32Z</time>
      </trkpt>
      <trkpt lat="47.541244850" lon="10.851881141">
        <ele>1310.4</ele>
        <time>2022-06-14T07:57:15Z</time>
      </trkpt>
      <trkpt lat="47.541333865" lon="10.851977114">
        <ele>1311.4</ele>
        <time>2022-06-14T07:57:30Z</time>
      </trkpt>
      <trkpt lat="47.541436795" lon="10.852003433">
        <ele>1311.9</ele>
        <time>2022-06-14T07:57:46Z</time>
      </trkpt>
      <trkpt lat="47.541624634" lon="10.851977281">
        <ele>1313.8</ele>
        <time>2022-06-14T07:58:17Z</time>
      </trkpt>
      <trkpt lat="47.541767880" lon="10.852032937">
        <ele>1314.3</ele>
        <time>2022-06-14T07:58:40Z</time>
      </trkpt>
      <trkpt lat="47.541951276" lon="10.852029333">
        <ele>1315.2</ele>
        <time>2022-06-14T07:58:56Z</time>
      </trkpt>
      <trkpt lat="47.542084046" lon="10.852067135">
        <ele>1314.7</ele>
        <time>2022-06-14T07:59:21Z</time>
      </trkpt>
      <trkpt lat="47.542104079" lon="10.852110134">
        <ele>1314.7</ele>
        <time>2022-06-14T07:59:28Z</time>
      </trkpt>
      <trkpt lat="47.542326031" lon="10.852164533">
        <ele>1320.0</ele>
        <time>2022-06-14T08:00:03Z</time>
      </trkpt>
      <trkpt lat="47.542356039" lon="10.852202000">
        <ele>1320.0</ele>
        <time>2022-06-14T08:00:09Z</time>
      </trkpt>
      <trkpt lat="47.542485539" lon="10.852228906">
        <ele>1318.6</ele>
        <time>2022-06-14T08:00:25Z</time>
      </trkpt>
      <trkpt lat="47.542537926" lon="10.852217674">
        <ele>1318.6</ele>
        <time>2022-06-14T08:00:37Z</time>
      </trkpt>
      <trkpt lat="47.542591151" lon="10.852133771">
        <ele>1317.6</ele>
        <time>2022-06-14T08:01:00Z</time>
      </trkpt>
      <trkpt lat="47.542629959" lon="10.852222368">
        <ele>1318.6</ele>
        <time>2022-06-14T08:01:39Z</time>
      </trkpt>
      <trkpt lat="47.542685028" lon="10.852243742">
        <ele>1319.5</ele>
        <time>2022-06-14T08:01:53Z</time>
      </trkpt>
      <trkpt lat="47.542850571" lon="10.852369973">
        <ele>1324.3</ele>
        <time>2022-06-14T08:02:23Z</time>
      </trkpt>
      <trkpt lat="47.543081995" lon="10.852480112">
        <ele>1328.7</ele>
        <time>2022-06-14T08:02:56Z</time>
      </trkpt>
      <trkpt lat="47.543228930" lon="10.852440130">
        <ele>1333.0</ele>
        <time>2022-06-14T08:03:27Z</time>
      </trkpt>
      <trkpt lat="47.543230941" lon="10.852375925">
        <ele>1335.4</ele>
        <time>2022-06-14T08:03:42Z</time>
      </trkpt>
      <trkpt lat="47.543319874" lon="10.852424372">
        <ele>1337.8</ele>
        <time>2022-06-14T08:03:58Z</time>
      </trkpt>
      <trkpt lat="47.543420708" lon="10.852446500">
        <ele>1340.2</ele>
        <time>2022-06-14T08:04:14Z</time>
      </trkpt>
      <trkpt lat="47.543564893" lon="10.852598998">
        <ele>1343.9</ele>
        <time>2022-06-14T08:04:31Z</time>
      </trkpt>
      <trkpt lat="47.543700006" lon="10.852590471">
        <ele>1349.3</ele>
        <time>2022-06-14T08:04:49Z</time>
      </trkpt>
      <trkpt lat="47.543762958" lon="10.852592689">
        <ele>1351.5</ele>
        <time>2022-06-14T08:05:06Z</time>
      </trkpt>
      <trkpt lat="47.543879655" lon="10.852610092">
        <ele>1355.5</ele>
        <time>2022-06-14T08:05:19Z</time>
      </trkpt>
      <trkpt lat="47.543979362" lon="10.852551777">
        <ele>1355.6</ele>
        <time>2022-06-14T08:06:14Z</time>
      </trkpt>
      <trkpt lat="47.544049686" lon="10.852558399">
        <ele>1358.5</ele>
        <time>2022-06-14T08:06:28Z</time>
      </trkpt>
      <trkpt lat="47.544120010" lon="10.852655210">
        <ele>1359.9</ele>
        <time>2022-06-14T08:06:44Z</time>
      </trkpt>
      <trkpt lat="47.544344297" lon="10.852812523">
        <ele>1366.7</ele>
        <time>2022-06-14T08:07:31Z</time>
      </trkpt>
      <trkpt lat="47.544588223" lon="10.852896105">
        <ele>1370.0</ele>
        <time>2022-06-14T08:08:07Z</time>
      </trkpt>
      <trkpt lat="47.544691404" lon="10.852918318">
        <ele>1371.5</ele>
        <time>2022-06-14T08:08:22Z</time>
      </trkpt>
      <trkpt lat="47.544783354" lon="10.852991994">
        <ele>1371.5</ele>
        <time>2022-06-14T08:08:35Z</time>
      </trkpt>
      <trkpt lat="47.544907741" lon="10.853039520">
        <ele>1371.9</ele>
        <time>2022-06-14T08:08:48Z</time>
      </trkpt>
      <trkpt lat="47.545029782" lon="10.853208164">
        <ele>1370.0</ele>
        <time>2022-06-14T08:09:18Z</time>
      </trkpt>
      <trkpt lat="47.545087784" lon="10.853234986">
        <ele>1370.0</ele>
        <time>2022-06-14T08:09:55Z</time>
      </trkpt>
      <trkpt lat="47.545074290" lon="10.853306148">
        <ele>1371.0</ele>
        <time>2022-06-14T08:10:36Z</time>
      </trkpt>
      <trkpt lat="47.545002373" lon="10.853377897">
        <ele>1372.9</ele>
        <time>2022-06-14T08:10:50Z</time>
      </trkpt>
      <trkpt lat="47.544953003" lon="10.853523575">
        <ele>1374.8</ele>
        <time>2022-06-14T08:11:07Z</time>
      </trkpt>
      <trkpt lat="47.544995919" lon="10.853583254">
        <ele>1377.7</ele>
        <time>2022-06-14T08:11:22Z</time>
      </trkpt>
      <trkpt lat="47.545201275" lon="10.853496585">
        <ele>1383.0</ele>
        <time>2022-06-14T08:12:18Z</time>
      </trkpt>
      <trkpt lat="47.545253579" lon="10.853517540">
        <ele>1385.4</ele>
        <time>2022-06-14T08:12:32Z</time>
      </trkpt>
      <trkpt lat="47.545287861" lon="10.853583003">
        <ele>1388.8</ele>
        <time>2022-06-14T08:12:48Z</time>
      </trkpt>
      <trkpt lat="47.545334548" lon="10.853600185">
        <ele>1390.7</ele>
        <time>2022-06-14T08:13:02Z</time>
      </trkpt>
      <trkpt lat="47.545588184" lon="10.853473451">
        <ele>1396.9</ele>
        <time>2022-06-14T08:13:51Z</time>
      </trkpt>
      <trkpt lat="47.545775520" lon="10.853322242">
        <ele>1400.8</ele>
        <time>2022-06-14T08:14:21Z</time>
      </trkpt>
      <trkpt lat="47.545890017" lon="10.853269184">
        <ele>1403.7</ele>
        <time>2022-06-14T08:14:39Z</time>
      </trkpt>
      <trkpt lat="47.545985067" lon="10.853263736">
        <ele>1406.5</ele>
        <time>2022-06-14T08:14:56Z</time>
      </trkpt>
      <trkpt lat="47.546071149" lon="10.853210930">
        <ele>1409.0</ele>
        <time>2022-06-14T08:15:12Z</time>
      </trkpt>
      <trkpt lat="47.546141306" lon="10.853235656">
        <ele>1411.3</ele>
        <time>2022-06-14T08:15:26Z</time>
      </trkpt>
      <trkpt lat="47.546221605" lon="10.853189724">
        <ele>1413.8</ele>
        <time>2022-06-14T08:15:41Z</time>
      </trkpt>
      <trkpt lat="47.546270303" lon="10.853223503">
        <ele>1415.7</ele>
        <time>2022-06-14T08:15:56Z</time>
      </trkpt>
      <trkpt lat="47.546245661" lon="10.853337999">
        <ele>1418.1</ele>
        <time>2022-06-14T08:16:10Z</time>
      </trkpt>
      <trkpt lat="47.546272399" lon="10.853399439">
        <ele>1421.5</ele>
        <time>2022-06-14T08:16:26Z</time>
      </trkpt>
      <trkpt lat="47.546320427" lon="10.853389632">
        <ele>1423.4</ele>
        <time>2022-06-14T08:16:39Z</time>
      </trkpt>
      <trkpt lat="47.546413382" lon="10.853309166">
        <ele>1426.2</ele>
        <time>2022-06-14T08:16:56Z</time>
      </trkpt>
      <trkpt lat="47.546846643" lon="10.853412766">
        <ele>1434.4</ele>
        <time>2022-06-14T08:18:03Z</time>
      </trkpt>
      <trkpt lat="47.546931384" lon="10.853374293">
        <ele>1436.8</ele>
        <time>2022-06-14T08:18:17Z</time>
      </trkpt>
      <trkpt lat="47.546972958" lon="10.853286702">
        <ele>1438.3</ele>
        <time>2022-06-14T08:18:31Z</time>
      </trkpt>
      <trkpt lat="47.547044791" lon="10.853260718">
        <ele>1439.7</ele>
        <time>2022-06-14T08:18:48Z</time>
      </trkpt>
      <trkpt lat="47.547083851" lon="10.853295671">
        <ele>1441.6</ele>
        <time>2022-06-14T08:19:00Z</time>
      </trkpt>
      <trkpt lat="47.547117630" lon="10.853267005">
        <ele>1443.1</ele>
        <time>2022-06-14T08:19:11Z</time>
      </trkpt>
      <trkpt lat="47.547159707" lon="10.853285277">
        <ele>1445.0</ele>
        <time>2022-06-14T08:19:23Z</time>
      </trkpt>
      <trkpt lat="47.547198012" lon="10.853200033">
        <ele>1447.4</ele>
        <time>2022-06-14T08:19:39Z</time>
      </trkpt>
      <trkpt lat="47.547277305" lon="10.853111269">
        <ele>1449.8</ele>
        <time>2022-06-14T08:19:55Z</time>
      </trkpt>
      <trkpt lat="47.547372524" lon="10.853061313">
        <ele>1452.7</ele>
        <time>2022-06-14T08:20:12Z</time>
      </trkpt>
      <trkpt lat="47.547637392" lon="10.852843048">
        <ele>1464.2</ele>
        <time>2022-06-14T08:21:20Z</time>
      </trkpt>
      <trkpt lat="47.547745937" lon="10.852633500">
        <ele>1469.0</ele>
        <time>2022-06-14T08:21:55Z</time>
      </trkpt>
      <trkpt lat="47.547983900" lon="10.852356646">
        <ele>1471.4</ele>
        <time>2022-06-14T08:22:51Z</time>
      </trkpt>
      <trkpt lat="47.548092026" lon="10.852282802">
        <ele>1471.0</ele>
        <time>2022-06-14T08:23:07Z</time>
      </trkpt>
      <trkpt lat="47.548217922" lon="10.852322197">
        <ele>1470.5</ele>
        <time>2022-06-14T08:23:26Z</time>
      </trkpt>
      <trkpt lat="47.548240386" lon="10.852185823">
        <ele>1467.6</ele>
        <time>2022-06-14T08:23:45Z</time>
      </trkpt>
      <trkpt lat="47.548270058" lon="10.852181297">
        <ele>1471.0</ele>
        <time>2022-06-14T08:24:07Z</time>
      </trkpt>
      <trkpt lat="47.548252707" lon="10.852145338">
        <ele>1471.0</ele>
        <time>2022-06-14T08:24:20Z</time>
      </trkpt>
      <trkpt lat="47.548252623" lon="10.852174424">
        <ele>1471.0</ele>
        <time>2022-06-14T08:26:01Z</time>
      </trkpt>
      <trkpt lat="47.548275171" lon="10.852160929">
        <ele>1471.0</ele>
        <time>2022-06-14T08:26:47Z</time>
      </trkpt>
      <trkpt lat="47.548313728" lon="10.852259248">
        <ele>1471.0</ele>
        <time>2022-06-14T08:30:46Z</time>
      </trkpt>
      <trkpt lat="47.548449682" lon="10.852435855">
        <ele>1479.6</ele>
        <time>2022-06-14T08:31:23Z</time>
      </trkpt>
      <trkpt lat="47.548521012" lon="10.852433676">
        <ele>1482.0</ele>
        <time>2022-06-14T08:31:35Z</time>
      </trkpt>
      <trkpt lat="47.548540207" lon="10.852552196">
        <ele>1484.9</ele>
        <time>2022-06-14T08:31:49Z</time>
      </trkpt>
      <trkpt lat="47.548618242" lon="10.852645570">
        <ele>1490.2</ele>
        <time>2022-06-14T08:32:24Z</time>
      </trkpt>
      <trkpt lat="47.548663002" lon="10.852553537">
        <ele>1492.6</ele>
        <time>2022-06-14T08:32:40Z</time>
      </trkpt>
      <trkpt lat="47.548701810" lon="10.852628723">
        <ele>1495.0</ele>
        <time>2022-06-14T08:32:54Z</time>
      </trkpt>
      <trkpt lat="47.548751598" lon="10.852617659">
        <ele>1497.9</ele>
        <time>2022-06-14T08:33:11Z</time>
      </trkpt>
      <trkpt lat="47.548793089" lon="10.852499306">
        <ele>1500.3</ele>
        <time>2022-06-14T08:33:28Z</time>
      </trkpt>
      <trkpt lat="47.548853774" lon="10.852452032">
        <ele>1502.7</ele>
        <time>2022-06-14T08:33:43Z</time>
      </trkpt>
      <trkpt lat="47.548918901" lon="10.852458989">
        <ele>1504.6</ele>
        <time>2022-06-14T08:33:59Z</time>
      </trkpt>
      <trkpt lat="47.548910938" lon="10.852553370">
        <ele>1507.5</ele>
        <time>2022-06-14T08:34:13Z</time>
      </trkpt>
      <trkpt lat="47.548921835" lon="10.852692174">
        <ele>1509.9</ele>
        <time>2022-06-14T08:34:29Z</time>
      </trkpt>
      <trkpt lat="47.548957709" lon="10.852657892">
        <ele>1511.8</ele>
        <time>2022-06-14T08:34:42Z</time>
      </trkpt>
      <trkpt lat="47.549056197" lon="10.852635764">
        <ele>1516.6</ele>
        <time>2022-06-14T08:35:14Z</time>
      </trkpt>
      <trkpt lat="47.549083438" lon="10.852720169">
        <ele>1519.0</ele>
        <time>2022-06-14T08:35:30Z</time>
      </trkpt>
      <trkpt lat="47.549127527" lon="10.852653701">
        <ele>1521.4</ele>
        <time>2022-06-14T08:35:46Z</time>
      </trkpt>
      <trkpt lat="47.549152840" lon="10.852736095">
        <ele>1523.3</ele>
        <time>2022-06-14T08:36:00Z</time>
      </trkpt>
      <trkpt lat="47.549241018" lon="10.852649091">
        <ele>1528.2</ele>
        <time>2022-06-14T08:36:30Z</time>
      </trkpt>
      <trkpt lat="47.549272869" lon="10.852780268">
        <ele>1530.1</ele>
        <time>2022-06-14T08:36:44Z</time>
      </trkpt>
      <trkpt lat="47.549352162" lon="10.852695443">
        <ele>1533.9</ele>
        <time>2022-06-14T08:37:20Z</time>
      </trkpt>
      <trkpt lat="47.549427515" lon="10.852821004">
        <ele>1539.2</ele>
        <time>2022-06-14T08:37:50Z</time>
      </trkpt>
      <trkpt lat="47.549495995" lon="10.852826871">
        <ele>1541.6</ele>
        <time>2022-06-14T08:38:06Z</time>
      </trkpt>
      <trkpt lat="47.549549472" lon="10.852861488">
        <ele>1544.0</ele>
        <time>2022-06-14T08:38:18Z</time>
      </trkpt>
      <trkpt lat="47.549614599" lon="10.852843551">
        <ele>1546.9</ele>
        <time>2022-06-14T08:38:32Z</time>
      </trkpt>
      <trkpt lat="47.549608648" lon="10.852904990">
        <ele>1548.8</ele>
        <time>2022-06-14T08:38:40Z</time>
      </trkpt>
      <trkpt lat="47.549563386" lon="10.852963077">
        <ele>1550.3</ele>
        <time>2022-06-14T08:38:47Z</time>
      </trkpt>
      <trkpt lat="47.549525751" lon="10.853089476">
        <ele>1552.2</ele>
        <time>2022-06-14T08:39:02Z</time>
      </trkpt>
      <trkpt lat="47.549581993" lon="10.853044465">
        <ele>1554.6</ele>
        <time>2022-06-14T08:39:13Z</time>
      </trkpt>
      <trkpt lat="47.549693892" lon="10.853051171">
        <ele>1556.0</ele>
        <time>2022-06-14T08:39:28Z</time>
      </trkpt>
      <trkpt lat="47.549709398" lon="10.853097774">
        <ele>1558.4</ele>
        <time>2022-06-14T08:39:39Z</time>
      </trkpt>
      <trkpt lat="47.549672769" lon="10.853239680">
        <ele>1560.8</ele>
        <time>2022-06-14T08:39:53Z</time>
      </trkpt>
      <trkpt lat="47.549707219" lon="10.853269603">
        <ele>1563.7</ele>
        <time>2022-06-14T08:40:07Z</time>
      </trkpt>
      <trkpt lat="47.549795145" lon="10.853193244">
        <ele>1567.1</ele>
        <time>2022-06-14T08:40:21Z</time>
      </trkpt>
      <trkpt lat="47.549861781" lon="10.853184946">
        <ele>1568.5</ele>
        <time>2022-06-14T08:40:36Z</time>
      </trkpt>
      <trkpt lat="47.549836887" lon="10.853324840">
        <ele>1570.9</ele>
        <time>2022-06-14T08:40:51Z</time>
      </trkpt>
      <trkpt lat="47.549841246" lon="10.853393236">
        <ele>1573.8</ele>
        <time>2022-06-14T08:41:05Z</time>
      </trkpt>
      <trkpt lat="47.549973931" lon="10.853396421">
        <ele>1578.6</ele>
        <time>2022-06-14T08:41:33Z</time>
      </trkpt>
      <trkpt lat="47.549951887" lon="10.853468757">
        <ele>1581.0</ele>
        <time>2022-06-14T08:41:46Z</time>
      </trkpt>
      <trkpt lat="47.549981559" lon="10.853528185">
        <ele>1584.4</ele>
        <time>2022-06-14T08:42:02Z</time>
      </trkpt>
      <trkpt lat="47.549953731" lon="10.853561377">
        <ele>1585.8</ele>
        <time>2022-06-14T08:42:25Z</time>
      </trkpt>
      <trkpt lat="47.549986169" lon="10.853660619">
        <ele>1587.3</ele>
        <time>2022-06-14T08:42:39Z</time>
      </trkpt>
      <trkpt lat="47.550096810" lon="10.853793975">
        <ele>1589.7</ele>
        <time>2022-06-14T08:43:51Z</time>
      </trkpt>
      <trkpt lat="47.550189598" lon="10.853986340">
        <ele>1593.0</ele>
        <time>2022-06-14T08:44:10Z</time>
      </trkpt>
      <trkpt lat="47.550251121" lon="10.854075523">
        <ele>1596.4</ele>
        <time>2022-06-14T08:44:25Z</time>
      </trkpt>
      <trkpt lat="47.550276434" lon="10.854286747">
        <ele>1602.2</ele>
        <time>2022-06-14T08:45:01Z</time>
      </trkpt>
      <trkpt lat="47.550285906" lon="10.854450027">
        <ele>1605.5</ele>
        <time>2022-06-14T08:45:54Z</time>
      </trkpt>
      <trkpt lat="47.550301077" lon="10.854658904">
        <ele>1607.0</ele>
        <time>2022-06-14T08:46:11Z</time>
      </trkpt>
      <trkpt lat="47.550267298" lon="10.855075736">
        <ele>1609.4</ele>
        <time>2022-06-14T08:46:50Z</time>
      </trkpt>
      <trkpt lat="47.550240392" lon="10.855108257">
        <ele>1610.3</ele>
        <time>2022-06-14T08:47:07Z</time>
      </trkpt>
      <trkpt lat="47.550106533" lon="10.855124099">
        <ele>1613.2</ele>
        <time>2022-06-14T08:47:39Z</time>
      </trkpt>
      <trkpt lat="47.550113909" lon="10.855246894">
        <ele>1617.6</ele>
        <time>2022-06-14T08:48:02Z</time>
      </trkpt>
      <trkpt lat="47.550097648" lon="10.855307747">
        <ele>1619.5</ele>
        <time>2022-06-14T08:48:08Z</time>
      </trkpt>
      <trkpt lat="47.550123632" lon="10.855377819">
        <ele>1622.4</ele>
        <time>2022-06-14T08:48:20Z</time>
      </trkpt>
      <trkpt lat="47.550077867" lon="10.855503464">
        <ele>1627.2</ele>
        <time>2022-06-14T08:48:46Z</time>
      </trkpt>
      <trkpt lat="47.550133271" lon="10.855544116">
        <ele>1629.1</ele>
        <time>2022-06-14T08:49:01Z</time>
      </trkpt>
      <trkpt lat="47.550142072" lon="10.855616284">
        <ele>1632.0</ele>
        <time>2022-06-14T08:49:15Z</time>
      </trkpt>
      <trkpt lat="47.550061522" lon="10.855641346">
        <ele>1635.8</ele>
        <time>2022-06-14T08:49:47Z</time>
      </trkpt>
      <trkpt lat="47.550193453" lon="10.855719969">
        <ele>1639.7</ele>
        <time>2022-06-14T08:50:16Z</time>
      </trkpt>
      <trkpt lat="47.550210804" lon="10.855775205">
        <ele>1641.6</ele>
        <time>2022-06-14T08:50:30Z</time>
      </trkpt>
      <trkpt lat="47.550221197" lon="10.855875537">
        <ele>1645.4</ele>
        <time>2022-06-14T08:50:57Z</time>
      </trkpt>
      <trkpt lat="47.550322534" lon="10.855988441">
        <ele>1650.2</ele>
        <time>2022-06-14T08:51:25Z</time>
      </trkpt>
      <trkpt lat="47.550313314" lon="10.856046528">
        <ele>1652.2</ele>
        <time>2022-06-14T08:51:40Z</time>
      </trkpt>
      <trkpt lat="47.550340388" lon="10.856104028">
        <ele>1654.6</ele>
        <time>2022-06-14T08:51:52Z</time>
      </trkpt>
      <trkpt lat="47.550272495" lon="10.856128335">
        <ele>1657.5</ele>
        <time>2022-06-14T08:52:08Z</time>
      </trkpt>
      <trkpt lat="47.550396463" lon="10.856350958">
        <ele>1662.7</ele>
        <time>2022-06-14T08:52:52Z</time>
      </trkpt>
      <trkpt lat="47.550475672" lon="10.856316844">
        <ele>1662.7</ele>
        <time>2022-06-14T08:53:08Z</time>
      </trkpt>
      <trkpt lat="47.550505008" lon="10.856367806">
        <ele>1664.2</ele>
        <time>2022-06-14T08:53:19Z</time>
      </trkpt>
      <trkpt lat="47.550523784" lon="10.856483560">
        <ele>1669.0</ele>
        <time>2022-06-14T08:53:46Z</time>
      </trkpt>
      <trkpt lat="47.550507104" lon="10.856536869">
        <ele>1671.9</ele>
        <time>2022-06-14T08:54:00Z</time>
      </trkpt>
      <trkpt lat="47.550536357" lon="10.856596800">
        <ele>1674.8</ele>
        <time>2022-06-14T08:54:14Z</time>
      </trkpt>
      <trkpt lat="47.550511546" lon="10.856663352">
        <ele>1677.2</ele>
        <time>2022-06-14T08:54:26Z</time>
      </trkpt>
      <trkpt lat="47.550567370" lon="10.856746584">
        <ele>1682.4</ele>
        <time>2022-06-14T08:54:55Z</time>
      </trkpt>
      <trkpt lat="47.550574997" lon="10.856816657">
        <ele>1684.4</ele>
        <time>2022-06-14T08:55:09Z</time>
      </trkpt>
      <trkpt lat="47.550685890" lon="10.856888993">
        <ele>1688.7</ele>
        <time>2022-06-14T08:55:38Z</time>
      </trkpt>
      <trkpt lat="47.550688405" lon="10.856965184">
        <ele>1690.6</ele>
        <time>2022-06-14T08:55:52Z</time>
      </trkpt>
      <trkpt lat="47.550744982" lon="10.857001981">
        <ele>1694.0</ele>
        <time>2022-06-14T08:56:08Z</time>
      </trkpt>
      <trkpt lat="47.550786557" lon="10.857069539">
        <ele>1696.4</ele>
        <time>2022-06-14T08:56:24Z</time>
      </trkpt>
      <trkpt lat="47.550757891" lon="10.857092589">
        <ele>1698.8</ele>
        <time>2022-06-14T08:56:36Z</time>
      </trkpt>
      <trkpt lat="47.550769960" lon="10.857137432">
        <ele>1701.7</ele>
        <time>2022-06-14T08:56:49Z</time>
      </trkpt>
      <trkpt lat="47.550687231" lon="10.857192920">
        <ele>1707.4</ele>
        <time>2022-06-14T08:57:23Z</time>
      </trkpt>
      <trkpt lat="47.550696032" lon="10.857246229">
        <ele>1709.4</ele>
        <time>2022-06-14T08:57:37Z</time>
      </trkpt>
      <trkpt lat="47.550823521" lon="10.857290570">
        <ele>1710.8</ele>
        <time>2022-06-14T08:57:52Z</time>
      </trkpt>
      <trkpt lat="47.550880685" lon="10.857399451">
        <ele>1711.8</ele>
        <time>2022-06-14T08:58:07Z</time>
      </trkpt>
      <trkpt lat="47.551051760" lon="10.857475726">
        <ele>1719.0</ele>
        <time>2022-06-14T08:58:47Z</time>
      </trkpt>
      <trkpt lat="47.551106829" lon="10.857524592">
        <ele>1720.4</ele>
        <time>2022-06-14T08:59:02Z</time>
      </trkpt>
      <trkpt lat="47.551153265" lon="10.857519899">
        <ele>1722.8</ele>
        <time>2022-06-14T08:59:18Z</time>
      </trkpt>
      <trkpt lat="47.551212609" lon="10.857605059">
        <ele>1726.2</ele>
        <time>2022-06-14T08:59:51Z</time>
      </trkpt>
      <trkpt lat="47.551219901" lon="10.857651243">
        <ele>1727.6</ele>
        <time>2022-06-14T09:00:04Z</time>
      </trkpt>
      <trkpt lat="47.551263655" lon="10.857668510">
        <ele>1730.0</ele>
        <time>2022-06-14T09:00:17Z</time>
      </trkpt>
      <trkpt lat="47.551286370" lon="10.857756017">
        <ele>1732.4</ele>
        <time>2022-06-14T09:00:31Z</time>
      </trkpt>
      <trkpt lat="47.551360382" lon="10.857874788">
        <ele>1736.3</ele>
        <time>2022-06-14T09:00:57Z</time>
      </trkpt>
      <trkpt lat="47.551433304" lon="10.857965983">
        <ele>1739.2</ele>
        <time>2022-06-14T09:01:13Z</time>
      </trkpt>
      <trkpt lat="47.551539335" lon="10.858002864">
        <ele>1742.0</ele>
        <time>2022-06-14T09:01:30Z</time>
      </trkpt>
      <trkpt lat="47.551635308" lon="10.858073439">
        <ele>1746.8</ele>
        <time>2022-06-14T09:01:57Z</time>
      </trkpt>
      <trkpt lat="47.551670177" lon="10.858148793">
        <ele>1748.8</ele>
        <time>2022-06-14T09:02:10Z</time>
      </trkpt>
      <trkpt lat="47.551728599" lon="10.858196150">
        <ele>1751.7</ele>
        <time>2022-06-14T09:02:26Z</time>
      </trkpt>
      <trkpt lat="47.551844604" lon="10.858394718">
        <ele>1759.3</ele>
        <time>2022-06-14T09:03:07Z</time>
      </trkpt>
      <trkpt lat="47.552050883" lon="10.858352138">
        <ele>1766.1</ele>
        <time>2022-06-14T09:03:52Z</time>
      </trkpt>
      <trkpt lat="47.552115927" lon="10.858433694">
        <ele>1768.5</ele>
        <time>2022-06-14T09:04:08Z</time>
      </trkpt>
      <trkpt lat="47.552127577" lon="10.858525978">
        <ele>1771.4</ele>
        <time>2022-06-14T09:04:24Z</time>
      </trkpt>
      <trkpt lat="47.552202009" lon="10.858531511">
        <ele>1773.8</ele>
        <time>2022-06-14T09:04:40Z</time>
      </trkpt>
      <trkpt lat="47.552227909" lon="10.858574426">
        <ele>1775.7</ele>
        <time>2022-06-14T09:05:00Z</time>
      </trkpt>
      <trkpt lat="47.552274177" lon="10.858594123">
        <ele>1777.1</ele>
        <time>2022-06-14T09:05:13Z</time>
      </trkpt>
      <trkpt lat="47.552289851" lon="10.858669728">
        <ele>1778.1</ele>
        <time>2022-06-14T09:06:21Z</time>
      </trkpt>
      <trkpt lat="47.552317595" lon="10.858613234">
        <ele>1777.6</ele>
        <time>2022-06-14T09:10:07Z</time>
      </trkpt>
      <trkpt lat="47.552458746" lon="10.858558584">
        <ele>1776.2</ele>
        <time>2022-06-14T09:10:42Z</time>
      </trkpt>
      <trkpt lat="47.552486658" lon="10.858476274">
        <ele>1775.7</ele>
        <time>2022-06-14T09:10:53Z</time>
      </trkpt>
      <trkpt lat="47.552466122" lon="10.858269660">
        <ele>1775.2</ele>
        <time>2022-06-14T09:11:12Z</time>
      </trkpt>
      <trkpt lat="47.552484898" lon="10.858158013">
        <ele>1774.2</ele>
        <time>2022-06-14T09:11:20Z</time>
      </trkpt>
      <trkpt lat="47.552451622" lon="10.857962798">
        <ele>1772.3</ele>
        <time>2022-06-14T09:11:34Z</time>
      </trkpt>
      <trkpt lat="47.552392278" lon="10.857852325">
        <ele>1770.9</ele>
        <time>2022-06-14T09:11:44Z</time>
      </trkpt>
      <trkpt lat="47.552345591" lon="10.857591312">
        <ele>1769.9</ele>
        <time>2022-06-14T09:12:02Z</time>
      </trkpt>
      <trkpt lat="47.552393451" lon="10.857367348">
        <ele>1775.7</ele>
        <time>2022-06-14T09:12:37Z</time>
      </trkpt>
      <trkpt lat="47.552362606" lon="10.857220916">
        <ele>1775.2</ele>
        <time>2022-06-14T09:13:04Z</time>
      </trkpt>
      <trkpt lat="47.552352631" lon="10.856852448">
        <ele>1781.5</ele>
        <time>2022-06-14T09:14:00Z</time>
      </trkpt>
      <trkpt lat="47.552306447" lon="10.856674081">
        <ele>1782.4</ele>
        <time>2022-06-14T09:14:25Z</time>
      </trkpt>
      <trkpt lat="47.552320277" lon="10.856521446">
        <ele>1784.8</ele>
        <time>2022-06-14T09:14:54Z</time>
      </trkpt>
      <trkpt lat="47.552350955" lon="10.856393706">
        <ele>1785.8</ele>
        <time>2022-06-14T09:15:10Z</time>
      </trkpt>
      <trkpt lat="47.552431673" lon="10.856233025">
        <ele>1788.2</ele>
        <time>2022-06-14T09:15:36Z</time>
      </trkpt>
      <trkpt lat="47.552458830" lon="10.856108554">
        <ele>1785.8</ele>
        <time>2022-06-14T09:15:54Z</time>
      </trkpt>
      <trkpt lat="47.552600484" lon="10.855911160">
        <ele>1785.8</ele>
        <time>2022-06-14T09:16:46Z</time>
      </trkpt>
      <trkpt lat="47.552773906" lon="10.855808733">
        <ele>1788.7</ele>
        <time>2022-06-14T09:17:14Z</time>
      </trkpt>
      <trkpt lat="47.552884128" lon="10.855796495">
        <ele>1790.6</ele>
        <time>2022-06-14T09:17:30Z</time>
      </trkpt>
      <trkpt lat="47.552975323" lon="10.855831616">
        <ele>1792.0</ele>
        <time>2022-06-14T09:17:46Z</time>
      </trkpt>
      <trkpt lat="47.553204317" lon="10.856064884">
        <ele>1796.8</ele>
        <time>2022-06-14T09:18:30Z</time>
      </trkpt>
      <trkpt lat="47.553369021" lon="10.856387420">
        <ele>1805.0</ele>
        <time>2022-06-14T09:19:15Z</time>
      </trkpt>
      <trkpt lat="47.553450828" lon="10.856505688">
        <ele>1807.9</ele>
        <time>2022-06-14T09:19:31Z</time>
      </trkpt>
      <trkpt lat="47.553511597" lon="10.856698640">
        <ele>1812.2</ele>
        <time>2022-06-14T09:20:10Z</time>
      </trkpt>
      <trkpt lat="47.553487541" lon="10.856708447">
        <ele>1811.7</ele>
        <time>2022-06-14T09:20:38Z</time>
      </trkpt>
      <trkpt lat="47.553582089" lon="10.856692772">
        <ele>1812.2</ele>
        <time>2022-06-14T09:21:24Z</time>
      </trkpt>
      <trkpt lat="47.553621400" lon="10.856645582">
        <ele>1811.7</ele>
        <time>2022-06-14T09:21:39Z</time>
      </trkpt>
      <trkpt lat="47.553559458" lon="10.856723953">
        <ele>1811.7</ele>
        <time>2022-06-14T09:21:48Z</time>
      </trkpt>
      <trkpt lat="47.553492570" lon="10.856724707">
        <ele>1811.7</ele>
        <time>2022-06-14T09:22:22Z</time>
      </trkpt>
      <trkpt lat="47.553574797" lon="10.856698137">
        <ele>1811.7</ele>
        <time>2022-06-14T09:22:36Z</time>
      </trkpt>
      <trkpt lat="47.553727683" lon="10.856549693">
        <ele>1813.2</ele>
        <time>2022-06-14T09:23:00Z</time>
      </trkpt>
      <trkpt lat="47.553886352" lon="10.856518764">
        <ele>1816.1</ele>
        <time>2022-06-14T09:23:25Z</time>
      </trkpt>
      <trkpt lat="47.553984001" lon="10.856521698">
        <ele>1817.0</ele>
        <time>2022-06-14T09:23:39Z</time>
      </trkpt>
      <trkpt lat="47.554073604" lon="10.856558327">
        <ele>1818.0</ele>
        <time>2022-06-14T09:24:05Z</time>
      </trkpt>
      <trkpt lat="47.554282900" lon="10.856425725">
        <ele>1820.9</ele>
        <time>2022-06-14T09:24:43Z</time>
      </trkpt>
      <trkpt lat="47.554353056" lon="10.856356993">
        <ele>1822.3</ele>
        <time>2022-06-14T09:24:54Z</time>
      </trkpt>
      <trkpt lat="47.554378034" lon="10.856268480">
        <ele>1824.2</ele>
        <time>2022-06-14T09:25:07Z</time>
      </trkpt>
      <trkpt lat="47.554537207" lon="10.856210645">
        <ele>1830.0</ele>
        <time>2022-06-14T09:25:43Z</time>
      </trkpt>
      <trkpt lat="47.554637203" lon="10.856206119">
        <ele>1831.5</ele>
        <time>2022-06-14T09:25:56Z</time>
      </trkpt>
      <trkpt lat="47.554678023" lon="10.856129173">
        <ele>1833.8</ele>
        <time>2022-06-14T09:26:10Z</time>
      </trkpt>
      <trkpt lat="47.554686991" lon="10.856034961">
        <ele>1835.8</ele>
        <time>2022-06-14T09:26:23Z</time>
      </trkpt>
      <trkpt lat="47.554725213" lon="10.855997745">
        <ele>1837.7</ele>
        <time>2022-06-14T09:26:33Z</time>
      </trkpt>
      <trkpt lat="47.554804338" lon="10.855992213">
        <ele>1838.2</ele>
        <time>2022-06-14T09:26:46Z</time>
      </trkpt>
      <trkpt lat="47.554867622" lon="10.855925577">
        <ele>1839.1</ele>
        <time>2022-06-14T09:26:58Z</time>
      </trkpt>
      <trkpt lat="47.555044731" lon="10.855841758">
        <ele>1845.4</ele>
        <time>2022-06-14T09:27:43Z</time>
      </trkpt>
      <trkpt lat="47.555117486" lon="10.855791802">
        <ele>1848.3</ele>
        <time>2022-06-14T09:27:59Z</time>
      </trkpt>
      <trkpt lat="47.555136262" lon="10.855704295">
        <ele>1849.2</ele>
        <time>2022-06-14T09:28:11Z</time>
      </trkpt>
      <trkpt lat="47.555168113" lon="10.855650483">
        <ele>1850.2</ele>
        <time>2022-06-14T09:28:25Z</time>
      </trkpt>
      <trkpt lat="47.555270372" lon="10.855552750">
        <ele>1854.5</ele>
        <time>2022-06-14T09:28:50Z</time>
      </trkpt>
      <trkpt lat="47.555329884" lon="10.855393410">
        <ele>1854.5</ele>
        <time>2022-06-14T09:29:17Z</time>
      </trkpt>
      <trkpt lat="47.555377493" lon="10.855375389">
        <ele>1853.1</ele>
        <time>2022-06-14T09:29:27Z</time>
      </trkpt>
      <trkpt lat="47.555416636" lon="10.855401959">
        <ele>1852.6</ele>
        <time>2022-06-14T09:29:38Z</time>
      </trkpt>
      <trkpt lat="47.555401381" lon="10.855375389">
        <ele>1852.6</ele>
        <time>2022-06-14T09:30:15Z</time>
      </trkpt>
      <trkpt lat="47.555408170" lon="10.855328031">
        <ele>1852.6</ele>
        <time>2022-06-14T09:30:21Z</time>
      </trkpt>
      <trkpt lat="47.555457624" lon="10.855231891">
        <ele>1852.6</ele>
        <time>2022-06-14T09:30:34Z</time>
      </trkpt>
      <trkpt lat="47.555497270" lon="10.855190568">
        <ele>1854.0</ele>
        <time>2022-06-14T09:30:46Z</time>
      </trkpt>
      <trkpt lat="47.555614030" lon="10.855159387">
        <ele>1853.6</ele>
        <time>2022-06-14T09:31:11Z</time>
      </trkpt>
      <trkpt lat="47.555629285" lon="10.855132230">
        <ele>1854.5</ele>
        <time>2022-06-14T09:31:16Z</time>
      </trkpt>
      <trkpt lat="47.555686450" lon="10.855019577">
        <ele>1856.4</ele>
        <time>2022-06-14T09:31:30Z</time>
      </trkpt>
      <trkpt lat="47.555662310" lon="10.854875241">
        <ele>1858.4</ele>
        <time>2022-06-14T09:31:46Z</time>
      </trkpt>
      <trkpt lat="47.555687623" lon="10.854838444">
        <ele>1861.2</ele>
        <time>2022-06-14T09:32:21Z</time>
      </trkpt>
      <trkpt lat="47.555728443" lon="10.854711207">
        <ele>1861.7</ele>
        <time>2022-06-14T09:33:13Z</time>
      </trkpt>
      <trkpt lat="47.555665746" lon="10.854604589">
        <ele>1862.7</ele>
        <time>2022-06-14T09:33:46Z</time>
      </trkpt>
      <trkpt lat="47.555669686" lon="10.854534516">
        <ele>1862.7</ele>
        <time>2022-06-14T09:33:57Z</time>
      </trkpt>
      <trkpt lat="47.555714697" lon="10.854482297">
        <ele>1863.7</ele>
        <time>2022-06-14T09:34:09Z</time>
      </trkpt>
      <trkpt lat="47.555696592" lon="10.854419516">
        <ele>1864.6</ele>
        <time>2022-06-14T09:34:22Z</time>
      </trkpt>
      <trkpt lat="47.555712350" lon="10.854329495">
        <ele>1865.6</ele>
        <time>2022-06-14T09:34:36Z</time>
      </trkpt>
      <trkpt lat="47.555680666" lon="10.854177112">
        <ele>1868.5</ele>
        <time>2022-06-14T09:35:04Z</time>
      </trkpt>
      <trkpt lat="47.555716876" lon="10.854028668">
        <ele>1871.3</ele>
        <time>2022-06-14T09:35:29Z</time>
      </trkpt>
      <trkpt lat="47.555726431" lon="10.853854157">
        <ele>1876.6</ele>
        <time>2022-06-14T09:35:56Z</time>
      </trkpt>
      <trkpt lat="47.555662142" lon="10.853724573">
        <ele>1880.0</ele>
        <time>2022-06-14T09:36:36Z</time>
      </trkpt>
      <trkpt lat="47.555614281" lon="10.853538746">
        <ele>1883.8</ele>
        <time>2022-06-14T09:37:02Z</time>
      </trkpt>
      <trkpt lat="47.555638170" lon="10.853505386">
        <ele>1885.8</ele>
        <time>2022-06-14T09:37:15Z</time>
      </trkpt>
      <trkpt lat="47.555690138" lon="10.853515277">
        <ele>1887.7</ele>
        <time>2022-06-14T09:37:28Z</time>
      </trkpt>
      <trkpt lat="47.555720061" lon="10.853489293">
        <ele>1891.5</ele>
        <time>2022-06-14T09:37:59Z</time>
      </trkpt>
      <trkpt lat="47.555668680" lon="10.853530951">
        <ele>1888.2</ele>
        <time>2022-06-14T09:38:25Z</time>
      </trkpt>
      <trkpt lat="47.555658454" lon="10.853492478">
        <ele>1887.2</ele>
        <time>2022-06-14T09:38:37Z</time>
      </trkpt>
      <trkpt lat="47.555680163" lon="10.853365827">
        <ele>1892.0</ele>
        <time>2022-06-14T09:39:04Z</time>
      </trkpt>
      <trkpt lat="47.555679660" lon="10.853266166">
        <ele>1894.9</ele>
        <time>2022-06-14T09:39:20Z</time>
      </trkpt>
      <trkpt lat="47.555675805" lon="10.853128871">
        <ele>1898.7</ele>
        <time>2022-06-14T09:39:47Z</time>
      </trkpt>
      <trkpt lat="47.555655353" lon="10.853032647">
        <ele>1900.2</ele>
        <time>2022-06-14T09:40:01Z</time>
      </trkpt>
      <trkpt lat="47.555697514" lon="10.853006830">
        <ele>1903.1</ele>
        <time>2022-06-14T09:40:15Z</time>
      </trkpt>
      <trkpt lat="47.555673709" lon="10.852922509">
        <ele>1905.0</ele>
        <time>2022-06-14T09:40:28Z</time>
      </trkpt>
      <trkpt lat="47.555703884" lon="10.852877749">
        <ele>1907.4</ele>
        <time>2022-06-14T09:40:40Z</time>
      </trkpt>
      <trkpt lat="47.555757277" lon="10.852891915">
        <ele>1909.8</ele>
        <time>2022-06-14T09:40:54Z</time>
      </trkpt>
      <trkpt lat="47.555768257" lon="10.852817735">
        <ele>1912.2</ele>
        <time>2022-06-14T09:41:09Z</time>
      </trkpt>
      <trkpt lat="47.555905553" lon="10.852647247">
        <ele>1921.8</ele>
        <time>2022-06-14T09:42:05Z</time>
      </trkpt>
      <trkpt lat="47.555893902" lon="10.852565523">
        <ele>1924.2</ele>
        <time>2022-06-14T09:42:20Z</time>
      </trkpt>
      <trkpt lat="47.555874037" lon="10.852537360">
        <ele>1925.2</ele>
        <time>2022-06-14T09:43:33Z</time>
      </trkpt>
      <trkpt lat="47.555693742" lon="10.852222284">
        <ele>1924.2</ele>
        <time>2022-06-14T09:44:56Z</time>
      </trkpt>
      <trkpt lat="47.555599948" lon="10.852152128">
        <ele>1923.2</ele>
        <time>2022-06-14T09:45:06Z</time>
      </trkpt>
      <trkpt lat="47.555513447" lon="10.851957751">
        <ele>1922.3</ele>
        <time>2022-06-14T09:45:20Z</time>
      </trkpt>
      <trkpt lat="47.555426862" lon="10.851623900">
        <ele>1919.4</ele>
        <time>2022-06-14T09:45:45Z</time>
      </trkpt>
      <trkpt lat="47.555227289" lon="10.851227352">
        <ele>1920.4</ele>
        <time>2022-06-14T09:46:33Z</time>
      </trkpt>
      <trkpt lat="47.555155205" lon="10.851171948">
        <ele>1925.7</ele>
        <time>2022-06-14T09:47:04Z</time>
      </trkpt>
      <trkpt lat="47.555162245" lon="10.851108329">
        <ele>1929.0</ele>
        <time>2022-06-14T09:47:21Z</time>
      </trkpt>
      <trkpt lat="47.555141542" lon="10.850986708">
        <ele>1933.8</ele>
        <time>2022-06-14T09:47:49Z</time>
      </trkpt>
      <trkpt lat="47.555105751" lon="10.850945301">
        <ele>1936.2</ele>
        <time>2022-06-14T09:48:03Z</time>
      </trkpt>
      <trkpt lat="47.555080857" lon="10.850774227">
        <ele>1942.0</ele>
        <time>2022-06-14T09:48:44Z</time>
      </trkpt>
      <trkpt lat="47.555023525" lon="10.850596949">
        <ele>1945.4</ele>
        <time>2022-06-14T09:49:12Z</time>
      </trkpt>
      <trkpt lat="47.555152858" lon="10.850638356">
        <ele>1948.7</ele>
        <time>2022-06-14T09:49:42Z</time>
      </trkpt>
      <trkpt lat="47.555172471" lon="10.850627040">
        <ele>1949.7</ele>
        <time>2022-06-14T09:49:53Z</time>
      </trkpt>
      <trkpt lat="47.555160988" lon="10.850551771">
        <ele>1953.1</ele>
        <time>2022-06-14T09:50:20Z</time>
      </trkpt>
      <trkpt lat="47.555136597" lon="10.850500809">
        <ele>1955.0</ele>
        <time>2022-06-14T09:50:31Z</time>
      </trkpt>
      <trkpt lat="47.555157719" lon="10.850452781">
        <ele>1957.9</ele>
        <time>2022-06-14T09:50:46Z</time>
      </trkpt>
      <trkpt lat="47.555229636" lon="10.850442639">
        <ele>1960.8</ele>
        <time>2022-06-14T09:51:03Z</time>
      </trkpt>
      <trkpt lat="47.555218907" lon="10.850385390">
        <ele>1963.6</ele>
        <time>2022-06-14T09:51:15Z</time>
      </trkpt>
      <trkpt lat="47.555268277" lon="10.850372231">
        <ele>1965.5</ele>
        <time>2022-06-14T09:51:28Z</time>
      </trkpt>
      <trkpt lat="47.555204239" lon="10.850241976">
        <ele>1969.9</ele>
        <time>2022-06-14T09:51:56Z</time>
      </trkpt>
      <trkpt lat="47.555222511" lon="10.850169556">
        <ele>1972.3</ele>
        <time>2022-06-14T09:52:21Z</time>
      </trkpt>
      <trkpt lat="47.555212369" lon="10.850067045">
        <ele>1976.1</ele>
        <time>2022-06-14T09:52:46Z</time>
      </trkpt>
      <trkpt lat="47.555244556" lon="10.849968893">
        <ele>1980.9</ele>
        <time>2022-06-14T09:53:20Z</time>
      </trkpt>
      <trkpt lat="47.555163000" lon="10.849797567">
        <ele>1981.4</ele>
        <time>2022-06-14T09:54:08Z</time>
      </trkpt>
      <trkpt lat="47.554866364" lon="10.848914115">
        <ele>1984.8</ele>
        <time>2022-06-14T09:57:14Z</time>
      </trkpt>
      <trkpt lat="47.554669809" lon="10.848608427">
        <ele>1989.1</ele>
        <time>2022-06-14T09:57:56Z</time>
      </trkpt>
      <trkpt lat="47.554591019" lon="10.848436514">
        <ele>1991.5</ele>
        <time>2022-06-14T09:58:17Z</time>
      </trkpt>
      <trkpt lat="47.554569896" lon="10.848358227">
        <ele>1993.9</ele>
        <time>2022-06-14T09:58:31Z</time>
      </trkpt>
      <trkpt lat="47.554584900" lon="10.848208442">
        <ele>1996.8</ele>
        <time>2022-06-14T09:58:46Z</time>
      </trkpt>
      <trkpt lat="47.554453220" lon="10.847865287">
        <ele>1999.2</ele>
        <time>2022-06-14T09:59:14Z</time>
      </trkpt>
      <trkpt lat="47.554363199" lon="10.847707707">
        <ele>1998.7</ele>
        <time>2022-06-14T09:59:30Z</time>
      </trkpt>
      <trkpt lat="47.554272004" lon="10.847599916">
        <ele>1998.2</ele>
        <time>2022-06-14T09:59:42Z</time>
      </trkpt>
      <trkpt lat="47.554183323" lon="10.847435128">
        <ele>1998.2</ele>
        <time>2022-06-14T09:59:55Z</time>
      </trkpt>
      <trkpt lat="47.553887358" lon="10.847076047">
        <ele>2001.1</ele>
        <time>2022-06-14T10:00:29Z</time>
      </trkpt>
      <trkpt lat="47.553777890" lon="10.846895836">
        <ele>2001.1</ele>
        <time>2022-06-14T10:00:44Z</time>
      </trkpt>
      <trkpt lat="47.553769844" lon="10.846738843">
        <ele>2001.6</ele>
        <time>2022-06-14T10:00:55Z</time>
      </trkpt>
      <trkpt lat="47.553697005" lon="10.846654354">
        <ele>2003.5</ele>
        <time>2022-06-14T10:01:07Z</time>
      </trkpt>
      <trkpt lat="47.553626848" lon="10.846516471">
        <ele>2006.4</ele>
        <time>2022-06-14T10:01:21Z</time>
      </trkpt>
      <trkpt lat="47.553574294" lon="10.846302481">
        <ele>2008.3</ele>
        <time>2022-06-14T10:01:38Z</time>
      </trkpt>
      <trkpt lat="47.553614695" lon="10.846117660">
        <ele>2013.6</ele>
        <time>2022-06-14T10:02:04Z</time>
      </trkpt>
      <trkpt lat="47.553591728" lon="10.845978437">
        <ele>2016.0</ele>
        <time>2022-06-14T10:02:18Z</time>
      </trkpt>
      <trkpt lat="47.553460468" lon="10.845756568">
        <ele>2020.3</ele>
        <time>2022-06-14T10:02:51Z</time>
      </trkpt>
      <trkpt lat="47.553408835" lon="10.845705019">
        <ele>2022.3</ele>
        <time>2022-06-14T10:03:04Z</time>
      </trkpt>
      <trkpt lat="47.553368183" lon="10.845619105">
        <ele>2024.7</ele>
        <time>2022-06-14T10:03:19Z</time>
      </trkpt>
      <trkpt lat="47.553402633" lon="10.845486168">
        <ele>2026.6</ele>
        <time>2022-06-14T10:03:35Z</time>
      </trkpt>
      <trkpt lat="47.553408164" lon="10.845364127">
        <ele>2028.0</ele>
        <time>2022-06-14T10:03:49Z</time>
      </trkpt>
      <trkpt lat="47.553381175" lon="10.845333114">
        <ele>2030.4</ele>
        <time>2022-06-14T10:04:03Z</time>
      </trkpt>
      <trkpt lat="47.553395256" lon="10.845215265">
        <ele>2031.9</ele>
        <time>2022-06-14T10:04:18Z</time>
      </trkpt>
      <trkpt lat="47.553355023" lon="10.845203698">
        <ele>2034.3</ele>
        <time>2022-06-14T10:04:33Z</time>
      </trkpt>
      <trkpt lat="47.553334068" lon="10.844910583">
        <ele>2041.5</ele>
        <time>2022-06-14T10:05:24Z</time>
      </trkpt>
      <trkpt lat="47.553349659" lon="10.844739759">
        <ele>2043.4</ele>
        <time>2022-06-14T10:05:42Z</time>
      </trkpt>
      <trkpt lat="47.553324346" lon="10.844551250">
        <ele>2046.8</ele>
        <time>2022-06-14T10:06:12Z</time>
      </trkpt>
      <trkpt lat="47.553300289" lon="10.844621155">
        <ele>2048.2</ele>
        <time>2022-06-14T10:06:31Z</time>
      </trkpt>
      <trkpt lat="47.553266175" lon="10.844320496">
        <ele>2054.0</ele>
        <time>2022-06-14T10:07:16Z</time>
      </trkpt>
      <trkpt lat="47.553189229" lon="10.844147494">
        <ele>2056.4</ele>
        <time>2022-06-14T10:08:01Z</time>
      </trkpt>
      <trkpt lat="47.553135920" lon="10.844131233">
        <ele>2059.3</ele>
        <time>2022-06-14T10:08:32Z</time>
      </trkpt>
      <trkpt lat="47.553138854" lon="10.844194684">
        <ele>2058.3</ele>
        <time>2022-06-14T10:09:41Z</time>
      </trkpt>
      <trkpt lat="47.553156037" lon="10.844211196">
        <ele>2054.5</ele>
        <time>2022-06-14T10:33:32Z</time>
      </trkpt>
      <trkpt lat="47.553138435" lon="10.844187895">
        <ele>2053.5</ele>
        <time>2022-06-14T10:34:38Z</time>
      </trkpt>
      <trkpt lat="47.553149080" lon="10.844141459">
        <ele>2053.0</ele>
        <time>2022-06-14T10:34:51Z</time>
      </trkpt>
      <trkpt lat="47.553114546" lon="10.843993938">
        <ele>2051.6</ele>
        <time>2022-06-14T10:35:20Z</time>
      </trkpt>
      <trkpt lat="47.553066686" lon="10.843882207">
        <ele>2051.6</ele>
        <time>2022-06-14T10:36:50Z</time>
      </trkpt>
      <trkpt lat="47.552986303" lon="10.843590852">
        <ele>2048.7</ele>
        <time>2022-06-14T10:37:32Z</time>
      </trkpt>
      <trkpt lat="47.552913297" lon="10.843413491">
        <ele>2048.2</ele>
        <time>2022-06-14T10:38:03Z</time>
      </trkpt>
      <trkpt lat="47.552677598" lon="10.843092715">
        <ele>2048.2</ele>
        <time>2022-06-14T10:38:44Z</time>
      </trkpt>
      <trkpt lat="47.552492525" lon="10.842680996">
        <ele>2050.6</ele>
        <time>2022-06-14T10:39:30Z</time>
      </trkpt>
      <trkpt lat="47.552419016" lon="10.842629448">
        <ele>2052.1</ele>
        <time>2022-06-14T10:39:42Z</time>
      </trkpt>
      <trkpt lat="47.552267555" lon="10.842124522">
        <ele>2057.8</ele>
        <time>2022-06-14T10:40:39Z</time>
      </trkpt>
      <trkpt lat="47.552198488" lon="10.842004996">
        <ele>2056.9</ele>
        <time>2022-06-14T10:40:55Z</time>
      </trkpt>
      <trkpt lat="47.552148867" lon="10.841960572">
        <ele>2055.9</ele>
        <time>2022-06-14T10:41:05Z</time>
      </trkpt>
      <trkpt lat="47.552130930" lon="10.841847165">
        <ele>2051.6</ele>
        <time>2022-06-14T10:41:28Z</time>
      </trkpt>
      <trkpt lat="47.552107042" lon="10.841760328">
        <ele>2049.2</ele>
        <time>2022-06-14T10:41:58Z</time>
      </trkpt>
      <trkpt lat="47.551976284" lon="10.841403594">
        <ele>2036.7</ele>
        <time>2022-06-14T10:44:09Z</time>
      </trkpt>
      <trkpt lat="47.551951809" lon="10.841384986">
        <ele>2033.8</ele>
        <time>2022-06-14T10:44:32Z</time>
      </trkpt>
      <trkpt lat="47.551948875" lon="10.841342071">
        <ele>2033.3</ele>
        <time>2022-06-14T10:44:46Z</time>
      </trkpt>
      <trkpt lat="47.551975194" lon="10.841328828">
        <ele>2034.8</ele>
        <time>2022-06-14T10:47:45Z</time>
      </trkpt>
      <trkpt lat="47.551917694" lon="10.841076532">
        <ele>2041.5</ele>
        <time>2022-06-14T10:49:39Z</time>
      </trkpt>
      <trkpt lat="47.551911324" lon="10.840878217">
        <ele>2041.0</ele>
        <time>2022-06-14T10:49:57Z</time>
      </trkpt>
      <trkpt lat="47.551890872" lon="10.840749303">
        <ele>2039.6</ele>
        <time>2022-06-14T10:50:35Z</time>
      </trkpt>
      <trkpt lat="47.551724408" lon="10.840228787">
        <ele>2040.5</ele>
        <time>2022-06-14T10:51:37Z</time>
      </trkpt>
      <trkpt lat="47.551645534" lon="10.839929637">
        <ele>2039.1</ele>
        <time>2022-06-14T10:52:16Z</time>
      </trkpt>
      <trkpt lat="47.551576719" lon="10.839606095">
        <ele>2033.8</ele>
        <time>2022-06-14T10:53:00Z</time>
      </trkpt>
      <trkpt lat="47.551496001" lon="10.839449018">
        <ele>2033.8</ele>
        <time>2022-06-14T10:53:36Z</time>
      </trkpt>
      <trkpt lat="47.551542520" lon="10.839231424">
        <ele>2028.5</ele>
        <time>2022-06-14T10:54:02Z</time>
      </trkpt>
      <trkpt lat="47.551526930" lon="10.838896567">
        <ele>2022.3</ele>
        <time>2022-06-14T10:54:33Z</time>
      </trkpt>
      <trkpt lat="47.551491978" lon="10.838714009">
        <ele>2020.3</ele>
        <time>2022-06-14T10:54:47Z</time>
      </trkpt>
      <trkpt lat="47.551489212" lon="10.838569170">
        <ele>2016.5</ele>
        <time>2022-06-14T10:55:12Z</time>
      </trkpt>
      <trkpt lat="47.551414529" lon="10.838233642">
        <ele>2013.6</ele>
        <time>2022-06-14T10:55:41Z</time>
      </trkpt>
      <trkpt lat="47.551401705" lon="10.838079667">
        <ele>2011.2</ele>
        <time>2022-06-14T10:55:52Z</time>
      </trkpt>
      <trkpt lat="47.551348228" lon="10.837929212">
        <ele>2008.8</ele>
        <time>2022-06-14T10:56:03Z</time>
      </trkpt>
      <trkpt lat="47.551275138" lon="10.837262096">
        <ele>2001.6</ele>
        <time>2022-06-14T10:56:51Z</time>
      </trkpt>
      <trkpt lat="47.551243957" lon="10.837224042">
        <ele>2000.6</ele>
        <time>2022-06-14T10:56:58Z</time>
      </trkpt>
      <trkpt lat="47.551195677" lon="10.837083729">
        <ele>1995.8</ele>
        <time>2022-06-14T10:57:25Z</time>
      </trkpt>
      <trkpt lat="47.551174555" lon="10.836860267">
        <ele>1993.4</ele>
        <time>2022-06-14T10:57:52Z</time>
      </trkpt>
      <trkpt lat="47.551133400" lon="10.836779214">
        <ele>1991.0</ele>
        <time>2022-06-14T10:58:21Z</time>
      </trkpt>
      <trkpt lat="47.551043211" lon="10.836420637">
        <ele>1980.0</ele>
        <time>2022-06-14T10:59:21Z</time>
      </trkpt>
      <trkpt lat="47.550988225" lon="10.836245539">
        <ele>1974.7</ele>
        <time>2022-06-14T10:59:51Z</time>
      </trkpt>
      <trkpt lat="47.550925109" lon="10.836133640">
        <ele>1970.8</ele>
        <time>2022-06-14T11:00:17Z</time>
      </trkpt>
      <trkpt lat="47.550920248" lon="10.835832646">
        <ele>1966.5</ele>
        <time>2022-06-14T11:00:44Z</time>
      </trkpt>
      <trkpt lat="47.550869957" lon="10.835663332">
        <ele>1960.8</ele>
        <time>2022-06-14T11:01:10Z</time>
      </trkpt>
      <trkpt lat="47.550854702" lon="10.835425872">
        <ele>1954.0</ele>
        <time>2022-06-14T11:01:49Z</time>
      </trkpt>
      <trkpt lat="47.550834501" lon="10.835390836">
        <ele>1951.6</ele>
        <time>2022-06-14T11:02:04Z</time>
      </trkpt>
      <trkpt lat="47.550851097" lon="10.835268963">
        <ele>1946.8</ele>
        <time>2022-06-14T11:02:30Z</time>
      </trkpt>
      <trkpt lat="47.550836094" lon="10.835225545">
        <ele>1944.4</ele>
        <time>2022-06-14T11:02:41Z</time>
      </trkpt>
      <trkpt lat="47.550843302" lon="10.835148180">
        <ele>1942.5</ele>
        <time>2022-06-14T11:02:54Z</time>
      </trkpt>
      <trkpt lat="47.550769206" lon="10.834643422">
        <ele>1927.6</ele>
        <time>2022-06-14T11:04:05Z</time>
      </trkpt>
      <trkpt lat="47.550703660" lon="10.834368328">
        <ele>1920.4</ele>
        <time>2022-06-14T11:04:45Z</time>
      </trkpt>
      <trkpt lat="47.550677257" lon="10.834285012">
        <ele>1917.5</ele>
        <time>2022-06-14T11:04:59Z</time>
      </trkpt>
      <trkpt lat="47.550665187" lon="10.834292304">
        <ele>1915.6</ele>
        <time>2022-06-14T11:05:42Z</time>
      </trkpt>
      <trkpt lat="47.550645825" lon="10.834246790">
        <ele>1914.1</ele>
        <time>2022-06-14T11:06:00Z</time>
      </trkpt>
      <trkpt lat="47.550616488" lon="10.834134305">
        <ele>1911.2</ele>
        <time>2022-06-14T11:06:14Z</time>
      </trkpt>
      <trkpt lat="47.550598467" lon="10.833997009">
        <ele>1907.9</ele>
        <time>2022-06-14T11:06:29Z</time>
      </trkpt>
      <trkpt lat="47.550585894" lon="10.833998350">
        <ele>1907.4</ele>
        <time>2022-06-14T11:06:32Z</time>
      </trkpt>
      <trkpt lat="47.550565777" lon="10.833841357">
        <ele>1904.0</ele>
        <time>2022-06-14T11:06:48Z</time>
      </trkpt>
      <trkpt lat="47.550531998" lon="10.833713785">
        <ele>1901.6</ele>
        <time>2022-06-14T11:07:01Z</time>
      </trkpt>
      <trkpt lat="47.550522108" lon="10.833598701">
        <ele>1898.3</ele>
        <time>2022-06-14T11:07:15Z</time>
      </trkpt>
      <trkpt lat="47.550498638" lon="10.833491497">
        <ele>1894.4</ele>
        <time>2022-06-14T11:07:40Z</time>
      </trkpt>
      <trkpt lat="47.550495034" lon="10.833512284">
        <ele>1894.4</ele>
        <time>2022-06-14T11:07:52Z</time>
      </trkpt>
      <trkpt lat="47.550451448" lon="10.833518822">
        <ele>1893.0</ele>
        <time>2022-06-14T11:08:42Z</time>
      </trkpt>
      <trkpt lat="47.550414903" lon="10.833493844">
        <ele>1890.6</ele>
        <time>2022-06-14T11:08:55Z</time>
      </trkpt>
      <trkpt lat="47.550296383" lon="10.833774218">
        <ele>1886.2</ele>
        <time>2022-06-14T11:09:37Z</time>
      </trkpt>
      <trkpt lat="47.550275093" lon="10.833939845">
        <ele>1883.8</ele>
        <time>2022-06-14T11:09:53Z</time>
      </trkpt>
      <trkpt lat="47.550232345" lon="10.834053168">
        <ele>1880.5</ele>
        <time>2022-06-14T11:10:18Z</time>
      </trkpt>
      <trkpt lat="47.550185071" lon="10.834124917">
        <ele>1878.1</ele>
        <time>2022-06-14T11:10:30Z</time>
      </trkpt>
      <trkpt lat="47.550097983" lon="10.834434712">
        <ele>1874.7</ele>
        <time>2022-06-14T11:10:56Z</time>
      </trkpt>
      <trkpt lat="47.549953898" lon="10.835106522">
        <ele>1876.6</ele>
        <time>2022-06-14T11:11:47Z</time>
      </trkpt>
      <trkpt lat="47.549936716" lon="10.835364433">
        <ele>1879.5</ele>
        <time>2022-06-14T11:12:18Z</time>
      </trkpt>
      <trkpt lat="47.549776537" lon="10.835566353">
        <ele>1879.5</ele>
        <time>2022-06-14T11:12:47Z</time>
      </trkpt>
      <trkpt lat="47.549667321" lon="10.835743882">
        <ele>1880.5</ele>
        <time>2022-06-14T11:13:37Z</time>
      </trkpt>
      <trkpt lat="47.549626753" lon="10.835836586">
        <ele>1881.0</ele>
        <time>2022-06-14T11:13:51Z</time>
      </trkpt>
      <trkpt lat="47.549643600" lon="10.835887212">
        <ele>1881.9</ele>
        <time>2022-06-14T11:14:05Z</time>
      </trkpt>
      <trkpt lat="47.549553160" lon="10.836140262">
        <ele>1878.5</ele>
        <time>2022-06-14T11:14:37Z</time>
      </trkpt>
      <trkpt lat="47.549374457" lon="10.836291639">
        <ele>1875.2</ele>
        <time>2022-06-14T11:15:14Z</time>
      </trkpt>
      <trkpt lat="47.549305391" lon="10.836521722">
        <ele>1873.3</ele>
        <time>2022-06-14T11:15:37Z</time>
      </trkpt>
      <trkpt lat="47.549181087" lon="10.836726911">
        <ele>1872.3</ele>
        <time>2022-06-14T11:15:56Z</time>
      </trkpt>
      <trkpt lat="47.549207322" lon="10.836860100">
        <ele>1871.8</ele>
        <time>2022-06-14T11:16:10Z</time>
      </trkpt>
      <trkpt lat="47.549250824" lon="10.836978452">
        <ele>1871.8</ele>
        <time>2022-06-14T11:16:27Z</time>
      </trkpt>
      <trkpt lat="47.549229115" lon="10.837040143">
        <ele>1870.9</ele>
        <time>2022-06-14T11:16:41Z</time>
      </trkpt>
      <trkpt lat="47.549210172" lon="10.837036623">
        <ele>1869.9</ele>
        <time>2022-06-14T11:16:55Z</time>
      </trkpt>
      <trkpt lat="47.549169352" lon="10.836972082">
        <ele>1868.0</ele>
        <time>2022-06-14T11:17:14Z</time>
      </trkpt>
      <trkpt lat="47.549087545" lon="10.836960180">
        <ele>1865.6</ele>
        <time>2022-06-14T11:17:42Z</time>
      </trkpt>
      <trkpt lat="47.548979418" lon="10.837088423">
        <ele>1864.1</ele>
        <time>2022-06-14T11:18:10Z</time>
      </trkpt>
      <trkpt lat="47.549117385" lon="10.837276764">
        <ele>1858.8</ele>
        <time>2022-06-14T11:18:42Z</time>
      </trkpt>
      <trkpt lat="47.548957542" lon="10.837354045">
        <ele>1854.5</ele>
        <time>2022-06-14T11:19:06Z</time>
      </trkpt>
      <trkpt lat="47.548727877" lon="10.837605503">
        <ele>1849.2</ele>
        <time>2022-06-14T11:19:40Z</time>
      </trkpt>
      <trkpt lat="47.548878584" lon="10.837596198">
        <ele>1846.3</ele>
        <time>2022-06-14T11:19:53Z</time>
      </trkpt>
      <trkpt lat="47.549015628" lon="10.837641377">
        <ele>1844.4</ele>
        <time>2022-06-14T11:20:08Z</time>
      </trkpt>
      <trkpt lat="47.549093412" lon="10.837864000">
        <ele>1840.6</ele>
        <time>2022-06-14T11:20:30Z</time>
      </trkpt>
      <trkpt lat="47.549040271" lon="10.837907838">
        <ele>1838.2</ele>
        <time>2022-06-14T11:20:43Z</time>
      </trkpt>
      <trkpt lat="47.548926864" lon="10.837889649">
        <ele>1834.8</ele>
        <time>2022-06-14T11:20:57Z</time>
      </trkpt>
      <trkpt lat="47.548822006" lon="10.837963074">
        <ele>1831.9</ele>
        <time>2022-06-14T11:21:12Z</time>
      </trkpt>
      <trkpt lat="47.548690578" lon="10.838173795">
        <ele>1827.1</ele>
        <time>2022-06-14T11:21:38Z</time>
      </trkpt>
      <trkpt lat="47.548626875" lon="10.838235235">
        <ele>1824.7</ele>
        <time>2022-06-14T11:21:50Z</time>
      </trkpt>
      <trkpt lat="47.548607010" lon="10.838403040">
        <ele>1819.4</ele>
        <time>2022-06-14T11:22:14Z</time>
      </trkpt>
      <trkpt lat="47.548679598" lon="10.838397592">
        <ele>1818.0</ele>
        <time>2022-06-14T11:22:26Z</time>
      </trkpt>
      <trkpt lat="47.548789065" lon="10.838445285">
        <ele>1814.6</ele>
        <time>2022-06-14T11:22:41Z</time>
      </trkpt>
      <trkpt lat="47.548881601" lon="10.838519046">
        <ele>1812.2</ele>
        <time>2022-06-14T11:22:56Z</time>
      </trkpt>
      <trkpt lat="47.548879003" lon="10.838543102">
        <ele>1811.7</ele>
        <time>2022-06-14T11:22:59Z</time>
      </trkpt>
      <trkpt lat="47.548761489" lon="10.838640919">
        <ele>1809.3</ele>
        <time>2022-06-14T11:23:13Z</time>
      </trkpt>
      <trkpt lat="47.548616398" lon="10.838953564">
        <ele>1805.0</ele>
        <time>2022-06-14T11:23:52Z</time>
      </trkpt>
      <trkpt lat="47.548514223" lon="10.839330833">
        <ele>1798.8</ele>
        <time>2022-06-14T11:24:19Z</time>
      </trkpt>
      <trkpt lat="47.548404504" lon="10.839970456">
        <ele>1785.8</ele>
        <time>2022-06-14T11:25:14Z</time>
      </trkpt>
      <trkpt lat="47.548386902" lon="10.840151505">
        <ele>1782.4</ele>
        <time>2022-06-14T11:25:28Z</time>
      </trkpt>
      <trkpt lat="47.548465775" lon="10.840381086">
        <ele>1775.7</ele>
        <time>2022-06-14T11:25:52Z</time>
      </trkpt>
      <trkpt lat="47.548503745" lon="10.840675877">
        <ele>1770.4</ele>
        <time>2022-06-14T11:26:13Z</time>
      </trkpt>
      <trkpt lat="47.548437864" lon="10.841100672">
        <ele>1763.7</ele>
        <time>2022-06-14T11:26:44Z</time>
      </trkpt>
      <trkpt lat="47.548309118" lon="10.841596713">
        <ele>1754.5</ele>
        <time>2022-06-14T11:27:16Z</time>
      </trkpt>
      <trkpt lat="47.548320433" lon="10.841891924">
        <ele>1750.2</ele>
        <time>2022-06-14T11:27:31Z</time>
      </trkpt>
      <trkpt lat="47.548272405" lon="10.842276318">
        <ele>1743.5</ele>
        <time>2022-06-14T11:27:57Z</time>
      </trkpt>
      <trkpt lat="47.548271148" lon="10.842502965">
        <ele>1738.7</ele>
        <time>2022-06-14T11:28:16Z</time>
      </trkpt>
      <trkpt lat="47.548305010" lon="10.842792979">
        <ele>1732.4</ele>
        <time>2022-06-14T11:28:41Z</time>
      </trkpt>
      <trkpt lat="47.548358319" lon="10.842912421">
        <ele>1729.1</ele>
        <time>2022-06-14T11:28:53Z</time>
      </trkpt>
      <trkpt lat="47.548418837" lon="10.843188437">
        <ele>1723.8</ele>
        <time>2022-06-14T11:29:16Z</time>
      </trkpt>
      <trkpt lat="47.548404001" lon="10.843545003">
        <ele>1719.0</ele>
        <time>2022-06-14T11:29:43Z</time>
      </trkpt>
      <trkpt lat="47.548460495" lon="10.843747510">
        <ele>1712.7</ele>
        <time>2022-06-14T11:30:07Z</time>
      </trkpt>
      <trkpt lat="47.548490502" lon="10.843770225">
        <ele>1710.3</ele>
        <time>2022-06-14T11:30:20Z</time>
      </trkpt>
      <trkpt lat="47.548503410" lon="10.843838705">
        <ele>1707.9</ele>
        <time>2022-06-14T11:30:31Z</time>
      </trkpt>
      <trkpt lat="47.548494944" lon="10.844079601">
        <ele>1703.1</ele>
        <time>2022-06-14T11:30:54Z</time>
      </trkpt>
      <trkpt lat="47.548518749" lon="10.844246903">
        <ele>1701.2</ele>
        <time>2022-06-14T11:31:06Z</time>
      </trkpt>
      <trkpt lat="47.548444150" lon="10.844510011">
        <ele>1697.8</ele>
        <time>2022-06-14T11:31:30Z</time>
      </trkpt>
      <trkpt lat="47.548523694" lon="10.844541695">
        <ele>1694.9</ele>
        <time>2022-06-14T11:31:44Z</time>
      </trkpt>
      <trkpt lat="47.548427386" lon="10.844774712">
        <ele>1689.2</ele>
        <time>2022-06-14T11:32:12Z</time>
      </trkpt>
      <trkpt lat="47.548188250" lon="10.845048046">
        <ele>1683.9</ele>
        <time>2022-06-14T11:32:43Z</time>
      </trkpt>
      <trkpt lat="47.548226975" lon="10.845082076">
        <ele>1682.4</ele>
        <time>2022-06-14T11:32:55Z</time>
      </trkpt>
      <trkpt lat="47.548353290" lon="10.845045615">
        <ele>1679.1</ele>
        <time>2022-06-14T11:33:08Z</time>
      </trkpt>
      <trkpt lat="47.548462590" lon="10.845096577">
        <ele>1676.2</ele>
        <time>2022-06-14T11:33:24Z</time>
      </trkpt>
      <trkpt lat="47.548365947" lon="10.845184084">
        <ele>1673.8</ele>
        <time>2022-06-14T11:33:37Z</time>
      </trkpt>
      <trkpt lat="47.548194034" lon="10.845526149">
        <ele>1665.6</ele>
        <time>2022-06-14T11:34:19Z</time>
      </trkpt>
      <trkpt lat="47.548425458" lon="10.845548781">
        <ele>1659.8</ele>
        <time>2022-06-14T11:34:45Z</time>
      </trkpt>
      <trkpt lat="47.548511541" lon="10.845710132">
        <ele>1657.0</ele>
        <time>2022-06-14T11:35:03Z</time>
      </trkpt>
      <trkpt lat="47.548664007" lon="10.845730584">
        <ele>1653.1</ele>
        <time>2022-06-14T11:35:28Z</time>
      </trkpt>
      <trkpt lat="47.548712203" lon="10.845776685">
        <ele>1651.2</ele>
        <time>2022-06-14T11:35:41Z</time>
      </trkpt>
      <trkpt lat="47.548839189" lon="10.846105591">
        <ele>1646.4</ele>
        <time>2022-06-14T11:36:11Z</time>
      </trkpt>
      <trkpt lat="47.548871208" lon="10.846334500">
        <ele>1644.5</ele>
        <time>2022-06-14T11:36:27Z</time>
      </trkpt>
      <trkpt lat="47.548826029" lon="10.846642367">
        <ele>1641.1</ele>
        <time>2022-06-14T11:36:50Z</time>
      </trkpt>
      <trkpt lat="47.548830221" lon="10.846671034">
        <ele>1640.6</ele>
        <time>2022-06-14T11:36:52Z</time>
      </trkpt>
      <trkpt lat="47.548910184" lon="10.846789470">
        <ele>1638.2</ele>
        <time>2022-06-14T11:37:04Z</time>
      </trkpt>
      <trkpt lat="47.548884451" lon="10.846813107">
        <ele>1637.3</ele>
        <time>2022-06-14T11:37:09Z</time>
      </trkpt>
      <trkpt lat="47.548729470" lon="10.846790140">
        <ele>1633.9</ele>
        <time>2022-06-14T11:37:27Z</time>
      </trkpt>
      <trkpt lat="47.548753107" lon="10.846875217">
        <ele>1632.5</ele>
        <time>2022-06-14T11:37:35Z</time>
      </trkpt>
      <trkpt lat="47.548838602" lon="10.846980242">
        <ele>1630.0</ele>
        <time>2022-06-14T11:37:47Z</time>
      </trkpt>
      <trkpt lat="47.548824688" lon="10.847005723">
        <ele>1629.6</ele>
        <time>2022-06-14T11:37:50Z</time>
      </trkpt>
      <trkpt lat="47.548664175" lon="10.847011842">
        <ele>1626.2</ele>
        <time>2022-06-14T11:38:07Z</time>
      </trkpt>
      <trkpt lat="47.548613213" lon="10.846976889">
        <ele>1624.8</ele>
        <time>2022-06-14T11:38:13Z</time>
      </trkpt>
      <trkpt lat="47.548772302" lon="10.847314764">
        <ele>1619.0</ele>
        <time>2022-06-14T11:38:46Z</time>
      </trkpt>
      <trkpt lat="47.548494190" lon="10.847324990">
        <ele>1612.8</ele>
        <time>2022-06-14T11:39:18Z</time>
      </trkpt>
      <trkpt lat="47.548479522" lon="10.847333875">
        <ele>1612.8</ele>
        <time>2022-06-14T11:39:20Z</time>
      </trkpt>
      <trkpt lat="47.548420681" lon="10.847506877">
        <ele>1609.4</ele>
        <time>2022-06-14T11:39:35Z</time>
      </trkpt>
      <trkpt lat="47.548485557" lon="10.847496735">
        <ele>1608.4</ele>
        <time>2022-06-14T11:39:43Z</time>
      </trkpt>
      <trkpt lat="47.548591085" lon="10.847613243">
        <ele>1606.5</ele>
        <time>2022-06-14T11:39:57Z</time>
      </trkpt>
      <trkpt lat="47.548592091" lon="10.847700415">
        <ele>1604.1</ele>
        <time>2022-06-14T11:40:12Z</time>
      </trkpt>
      <trkpt lat="47.548483293" lon="10.847721454">
        <ele>1601.2</ele>
        <time>2022-06-14T11:40:27Z</time>
      </trkpt>
      <trkpt lat="47.548560742" lon="10.847816085">
        <ele>1599.3</ele>
        <time>2022-06-14T11:40:41Z</time>
      </trkpt>
      <trkpt lat="47.548617739" lon="10.847951034">
        <ele>1595.9</ele>
        <time>2022-06-14T11:42:21Z</time>
      </trkpt>
      <trkpt lat="47.548605753" lon="10.848023873">
        <ele>1595.0</ele>
        <time>2022-06-14T11:42:37Z</time>
      </trkpt>
      <trkpt lat="47.548519000" lon="10.848042816">
        <ele>1593.0</ele>
        <time>2022-06-14T11:42:51Z</time>
      </trkpt>
      <trkpt lat="47.548587816" lon="10.848139292">
        <ele>1590.6</ele>
        <time>2022-06-14T11:43:04Z</time>
      </trkpt>
      <trkpt lat="47.548543057" lon="10.848183967">
        <ele>1589.2</ele>
        <time>2022-06-14T11:43:14Z</time>
      </trkpt>
      <trkpt lat="47.548444485" lon="10.848222859">
        <ele>1586.3</ele>
        <time>2022-06-14T11:43:32Z</time>
      </trkpt>
      <trkpt lat="47.548448341" lon="10.848308774">
        <ele>1583.9</ele>
        <time>2022-06-14T11:43:45Z</time>
      </trkpt>
      <trkpt lat="47.548408443" lon="10.848348169">
        <ele>1582.0</ele>
        <time>2022-06-14T11:43:54Z</time>
      </trkpt>
      <trkpt lat="47.548398720" lon="10.848449590">
        <ele>1579.1</ele>
        <time>2022-06-14T11:44:08Z</time>
      </trkpt>
      <trkpt lat="47.548321271" lon="10.848380607">
        <ele>1575.7</ele>
        <time>2022-06-14T11:44:21Z</time>
      </trkpt>
      <trkpt lat="47.548350524" lon="10.848954180">
        <ele>1564.2</ele>
        <time>2022-06-14T11:45:05Z</time>
      </trkpt>
      <trkpt lat="47.548315991" lon="10.848971866">
        <ele>1561.8</ele>
        <time>2022-06-14T11:45:15Z</time>
      </trkpt>
      <trkpt lat="47.548311548" lon="10.849056356">
        <ele>1559.4</ele>
        <time>2022-06-14T11:45:26Z</time>
      </trkpt>
      <trkpt lat="47.548292940" lon="10.849947436">
        <ele>1540.2</ele>
        <time>2022-06-14T11:46:43Z</time>
      </trkpt>
      <trkpt lat="47.548300400" lon="10.850100405">
        <ele>1536.8</ele>
        <time>2022-06-14T11:46:56Z</time>
      </trkpt>
      <trkpt lat="47.548131337" lon="10.850650929">
        <ele>1527.2</ele>
        <time>2022-06-14T11:47:44Z</time>
      </trkpt>
      <trkpt lat="47.548067886" lon="10.850729970">
        <ele>1523.8</ele>
        <time>2022-06-14T11:47:57Z</time>
      </trkpt>
      <trkpt lat="47.548057912" lon="10.850822590">
        <ele>1522.4</ele>
        <time>2022-06-14T11:48:05Z</time>
      </trkpt>
      <trkpt lat="47.548171738" lon="10.851198435">
        <ele>1518.5</ele>
        <time>2022-06-14T11:48:33Z</time>
      </trkpt>
      <trkpt lat="47.548300903" lon="10.851515522">
        <ele>1517.1</ele>
        <time>2022-06-14T11:49:04Z</time>
      </trkpt>
      <trkpt lat="47.548369551" lon="10.851662708">
        <ele>1512.3</ele>
        <time>2022-06-14T11:49:23Z</time>
      </trkpt>
      <trkpt lat="47.548364187" lon="10.851744600">
        <ele>1509.4</ele>
        <time>2022-06-14T11:49:37Z</time>
      </trkpt>
      <trkpt lat="47.548299311" lon="10.851777792">
        <ele>1505.1</ele>
        <time>2022-06-14T11:50:07Z</time>
      </trkpt>
      <trkpt lat="47.548297718" lon="10.851865048">
        <ele>1502.7</ele>
        <time>2022-06-14T11:50:19Z</time>
      </trkpt>
      <trkpt lat="47.548217000" lon="10.851932941">
        <ele>1497.4</ele>
        <time>2022-06-14T11:50:45Z</time>
      </trkpt>
      <trkpt lat="47.548234351" lon="10.852044169">
        <ele>1495.0</ele>
        <time>2022-06-14T11:50:59Z</time>
      </trkpt>
      <trkpt lat="47.548273997" lon="10.852130838">
        <ele>1495.5</ele>
        <time>2022-06-14T11:51:13Z</time>
      </trkpt>
      <trkpt lat="47.548247762" lon="10.852330746">
        <ele>1492.1</ele>
        <time>2022-06-14T11:52:10Z</time>
      </trkpt>
      <trkpt lat="47.548258910" lon="10.852332674">
        <ele>1526.2</ele>
        <time>2022-06-14T11:52:47Z</time>
      </trkpt>
      <trkpt lat="47.548230244" lon="10.852361005">
        <ele>1492.1</ele>
        <time>2022-06-14T11:53:04Z</time>
      </trkpt>
      <trkpt lat="47.548212893" lon="10.852340218">
        <ele>1492.1</ele>
        <time>2022-06-14T11:53:20Z</time>
      </trkpt>
      <trkpt lat="47.548103929" lon="10.852313144">
        <ele>1492.6</ele>
        <time>2022-06-14T11:53:34Z</time>
      </trkpt>
      <trkpt lat="47.547939140" lon="10.852460079">
        <ele>1492.6</ele>
        <time>2022-06-14T11:54:06Z</time>
      </trkpt>
      <trkpt lat="47.547763959" lon="10.852721343">
        <ele>1489.2</ele>
        <time>2022-06-14T11:54:38Z</time>
      </trkpt>
      <trkpt lat="47.547695730" lon="10.852873055">
        <ele>1486.8</ele>
        <time>2022-06-14T11:54:52Z</time>
      </trkpt>
      <trkpt lat="47.547577964" lon="10.852949247">
        <ele>1482.5</ele>
        <time>2022-06-14T11:55:12Z</time>
      </trkpt>
      <trkpt lat="47.547535049" lon="10.853018900">
        <ele>1479.6</ele>
        <time>2022-06-14T11:55:25Z</time>
      </trkpt>
      <trkpt lat="47.547306810" lon="10.853179749">
        <ele>1472.4</ele>
        <time>2022-06-14T11:55:56Z</time>
      </trkpt>
      <trkpt lat="47.547254842" lon="10.853262478">
        <ele>1470.5</ele>
        <time>2022-06-14T11:56:06Z</time>
      </trkpt>
      <trkpt lat="47.547177812" lon="10.853312351">
        <ele>1466.6</ele>
        <time>2022-06-14T11:56:22Z</time>
      </trkpt>
      <trkpt lat="47.547072452" lon="10.853321487">
        <ele>1461.3</ele>
        <time>2022-06-14T11:56:44Z</time>
      </trkpt>
      <trkpt lat="47.546999026" lon="10.853371946">
        <ele>1458.9</ele>
        <time>2022-06-14T11:56:56Z</time>
      </trkpt>
      <trkpt lat="47.546984525" lon="10.853418885">
        <ele>1457.5</ele>
        <time>2022-06-14T11:57:01Z</time>
      </trkpt>
      <trkpt lat="47.546920488" lon="10.853469847">
        <ele>1456.0</ele>
        <time>2022-06-14T11:57:10Z</time>
      </trkpt>
      <trkpt lat="47.546828119" lon="10.853467081">
        <ele>1454.1</ele>
        <time>2022-06-14T11:57:24Z</time>
      </trkpt>
      <trkpt lat="47.546724854" lon="10.853414191">
        <ele>1451.2</ele>
        <time>2022-06-14T11:57:39Z</time>
      </trkpt>
      <trkpt lat="47.546505080" lon="10.853358619">
        <ele>1447.9</ele>
        <time>2022-06-14T11:57:57Z</time>
      </trkpt>
      <trkpt lat="47.546331491" lon="10.853459286">
        <ele>1443.6</ele>
        <time>2022-06-14T11:58:17Z</time>
      </trkpt>
      <trkpt lat="47.546288744" lon="10.853442187">
        <ele>1442.1</ele>
        <time>2022-06-14T11:58:22Z</time>
      </trkpt>
      <trkpt lat="47.546310956" lon="10.853249570">
        <ele>1436.8</ele>
        <time>2022-06-14T11:58:38Z</time>
      </trkpt>
      <trkpt lat="47.546276255" lon="10.853232052">
        <ele>1434.4</ele>
        <time>2022-06-14T11:58:47Z</time>
      </trkpt>
      <trkpt lat="47.546177767" lon="10.853284355">
        <ele>1430.6</ele>
        <time>2022-06-14T11:59:00Z</time>
      </trkpt>
      <trkpt lat="47.546096379" lon="10.853267675">
        <ele>1428.2</ele>
        <time>2022-06-14T11:59:11Z</time>
      </trkpt>
      <trkpt lat="47.545993365" lon="10.853337161">
        <ele>1425.3</ele>
        <time>2022-06-14T11:59:25Z</time>
      </trkpt>
      <trkpt lat="47.545852801" lon="10.853356775">
        <ele>1421.5</ele>
        <time>2022-06-14T11:59:42Z</time>
      </trkpt>
      <trkpt lat="47.545618359" lon="10.853516953">
        <ele>1417.1</ele>
        <time>2022-06-14T12:00:08Z</time>
      </trkpt>
      <trkpt lat="47.545400178" lon="10.853636814">
        <ele>1411.8</ele>
        <time>2022-06-14T12:00:33Z</time>
      </trkpt>
      <trkpt lat="47.545350306" lon="10.853634048">
        <ele>1409.4</ele>
        <time>2022-06-14T12:00:44Z</time>
      </trkpt>
      <trkpt lat="47.545272773" lon="10.853534052">
        <ele>1403.2</ele>
        <time>2022-06-14T12:01:08Z</time>
      </trkpt>
      <trkpt lat="47.545182500" lon="10.853547128">
        <ele>1401.3</ele>
        <time>2022-06-14T12:01:20Z</time>
      </trkpt>
      <trkpt lat="47.545106895" lon="10.853586439">
        <ele>1398.4</ele>
        <time>2022-06-14T12:01:31Z</time>
      </trkpt>
      <trkpt lat="47.545009917" lon="10.853591217">
        <ele>1396.0</ele>
        <time>2022-06-14T12:01:45Z</time>
      </trkpt>
      <trkpt lat="47.544994997" lon="10.853529526">
        <ele>1394.0</ele>
        <time>2022-06-14T12:01:54Z</time>
      </trkpt>
      <trkpt lat="47.545055347" lon="10.853394577">
        <ele>1391.2</ele>
        <time>2022-06-14T12:02:08Z</time>
      </trkpt>
      <trkpt lat="47.545113936" lon="10.853353674">
        <ele>1389.2</ele>
        <time>2022-06-14T12:02:23Z</time>
      </trkpt>
      <trkpt lat="47.545114942" lon="10.853278739">
        <ele>1388.3</ele>
        <time>2022-06-14T12:02:39Z</time>
      </trkpt>
      <trkpt lat="47.545068255" lon="10.853251163">
        <ele>1388.8</ele>
        <time>2022-06-14T12:02:53Z</time>
      </trkpt>
      <trkpt lat="47.544961050" lon="10.853115544">
        <ele>1390.2</ele>
        <time>2022-06-14T12:03:12Z</time>
      </trkpt>
      <trkpt lat="47.544822916" lon="10.853043711">
        <ele>1390.7</ele>
        <time>2022-06-14T12:03:28Z</time>
      </trkpt>
      <trkpt lat="47.544718645" lon="10.852960562">
        <ele>1391.2</ele>
        <time>2022-06-14T12:03:42Z</time>
      </trkpt>
      <trkpt lat="47.544689476" lon="10.852981098">
        <ele>1391.2</ele>
        <time>2022-06-14T12:03:46Z</time>
      </trkpt>
      <trkpt lat="47.544576740" lon="10.852890071">
        <ele>1389.7</ele>
        <time>2022-06-14T12:04:07Z</time>
      </trkpt>
      <trkpt lat="47.544191088" lon="10.852768617">
        <ele>1381.1</ele>
        <time>2022-06-14T12:04:46Z</time>
      </trkpt>
      <trkpt lat="47.544078017" lon="10.852651438">
        <ele>1377.7</ele>
        <time>2022-06-14T12:05:02Z</time>
      </trkpt>
      <trkpt lat="47.543915324" lon="10.852604080">
        <ele>1373.4</ele>
        <time>2022-06-14T12:05:28Z</time>
      </trkpt>
      <trkpt lat="47.543832175" lon="10.852607349">
        <ele>1370.5</ele>
        <time>2022-06-14T12:05:43Z</time>
      </trkpt>
      <trkpt lat="47.543812813" lon="10.852637524">
        <ele>1367.6</ele>
        <time>2022-06-14T12:05:55Z</time>
      </trkpt>
      <trkpt lat="47.543826476" lon="10.852666441">
        <ele>1366.7</ele>
        <time>2022-06-14T12:05:59Z</time>
      </trkpt>
      <trkpt lat="47.543780291" lon="10.852673231">
        <ele>1364.7</ele>
        <time>2022-06-14T12:06:10Z</time>
      </trkpt>
      <trkpt lat="47.543619527" lon="10.852567200">
        <ele>1363.3</ele>
        <time>2022-06-14T12:06:28Z</time>
      </trkpt>
      <trkpt lat="47.543429509" lon="10.852527637">
        <ele>1359.4</ele>
        <time>2022-06-14T12:06:44Z</time>
      </trkpt>
      <trkpt lat="47.543377709" lon="10.852468545">
        <ele>1358.5</ele>
        <time>2022-06-14T12:06:49Z</time>
      </trkpt>
      <trkpt lat="47.543308893" lon="10.852465779">
        <ele>1356.6</ele>
        <time>2022-06-14T12:06:59Z</time>
      </trkpt>
      <trkpt lat="47.543265559" lon="10.852530990">
        <ele>1353.2</ele>
        <time>2022-06-14T12:07:11Z</time>
      </trkpt>
      <trkpt lat="47.543123485" lon="10.852544317">
        <ele>1349.8</ele>
        <time>2022-06-14T12:07:25Z</time>
      </trkpt>
      <trkpt lat="47.542856187" lon="10.852376260">
        <ele>1343.6</ele>
        <time>2022-06-14T12:07:50Z</time>
      </trkpt>
      <trkpt lat="47.542748479" lon="10.852338038">
        <ele>1340.2</ele>
        <time>2022-06-14T12:08:04Z</time>
      </trkpt>
      <trkpt lat="47.542657200" lon="10.852214238">
        <ele>1335.9</ele>
        <time>2022-06-14T12:08:23Z</time>
      </trkpt>
      <trkpt lat="47.542642364" lon="10.852251537">
        <ele>1335.9</ele>
        <time>2022-06-14T12:08:26Z</time>
      </trkpt>
      <trkpt lat="47.542502135" lon="10.852276348">
        <ele>1336.4</ele>
        <time>2022-06-14T12:08:40Z</time>
      </trkpt>
      <trkpt lat="47.542359307" lon="10.852221027">
        <ele>1336.8</ele>
        <time>2022-06-14T12:08:55Z</time>
      </trkpt>
      <trkpt lat="47.542193346" lon="10.852228319">
        <ele>1335.9</ele>
        <time>2022-06-14T12:09:08Z</time>
      </trkpt>
      <trkpt lat="47.542052027" lon="10.852194540">
        <ele>1333.5</ele>
        <time>2022-06-14T12:09:21Z</time>
      </trkpt>
      <trkpt lat="47.542010033" lon="10.852156654">
        <ele>1333.5</ele>
        <time>2022-06-14T12:09:26Z</time>
      </trkpt>
      <trkpt lat="47.541832924" lon="10.852096807">
        <ele>1331.6</ele>
        <time>2022-06-14T12:09:46Z</time>
      </trkpt>
      <trkpt lat="47.541592279" lon="10.852102758">
        <ele>1329.2</ele>
        <time>2022-06-14T12:10:17Z</time>
      </trkpt>
      <trkpt lat="47.541483985" lon="10.852061017">
        <ele>1329.6</ele>
        <time>2022-06-14T12:10:34Z</time>
      </trkpt>
      <trkpt lat="47.541389856" lon="10.851928834">
        <ele>1329.6</ele>
        <time>2022-06-14T12:10:49Z</time>
      </trkpt>
      <trkpt lat="47.541356999" lon="10.851853564">
        <ele>1327.2</ele>
        <time>2022-06-14T12:11:05Z</time>
      </trkpt>
      <trkpt lat="47.541287346" lon="10.851783743">
        <ele>1324.8</ele>
        <time>2022-06-14T12:11:20Z</time>
      </trkpt>
      <trkpt lat="47.541228170" lon="10.851755999">
        <ele>1322.0</ele>
        <time>2022-06-14T12:11:35Z</time>
      </trkpt>
      <trkpt lat="47.541031619" lon="10.851778836">
        <ele>1312.5</ele>
        <time>2022-06-14T12:11:59Z</time>
      </trkpt>
      <trkpt lat="47.540857101" lon="10.851998598">
        <ele>1301.9</ele>
        <time>2022-06-14T12:12:44Z</time>
      </trkpt>
      <trkpt lat="47.540719843" lon="10.852139938">
        <ele>1295.9</ele>
        <time>2022-06-14T12:13:03Z</time>
      </trkpt>
      <trkpt lat="47.540578572" lon="10.852257237">
        <ele>1304.2</ele>
        <time>2022-06-14T12:13:20Z</time>
      </trkpt>
      <trkpt lat="47.540425099" lon="10.852230331">
        <ele>1298.4</ele>
        <time>2022-06-14T12:13:47Z</time>
      </trkpt>
      <trkpt lat="47.540371120" lon="10.852257740">
        <ele>1295.0</ele>
        <time>2022-06-14T12:13:59Z</time>
      </trkpt>
      <trkpt lat="47.540257881" lon="10.852054395">
        <ele>1291.2</ele>
        <time>2022-06-14T12:14:28Z</time>
      </trkpt>
      <trkpt lat="47.540186215" lon="10.852007791">
        <ele>1287.8</ele>
        <time>2022-06-14T12:14:44Z</time>
      </trkpt>
      <trkpt lat="47.540172469" lon="10.852076775">
        <ele>1284.5</ele>
        <time>2022-06-14T12:14:57Z</time>
      </trkpt>
      <trkpt lat="47.540151011" lon="10.852079960">
        <ele>1282.5</ele>
        <time>2022-06-14T12:15:12Z</time>
      </trkpt>
      <trkpt lat="47.540085381" lon="10.851952974">
        <ele>1279.7</ele>
        <time>2022-06-14T12:15:26Z</time>
      </trkpt>
      <trkpt lat="47.540018493" lon="10.851929672">
        <ele>1276.8</ele>
        <time>2022-06-14T12:15:40Z</time>
      </trkpt>
      <trkpt lat="47.539924281" lon="10.851961020">
        <ele>1275.3</ele>
        <time>2022-06-14T12:15:55Z</time>
      </trkpt>
      <trkpt lat="47.539871642" lon="10.851906287">
        <ele>1275.8</ele>
        <time>2022-06-14T12:16:09Z</time>
      </trkpt>
      <trkpt lat="47.539750356" lon="10.851889774">
        <ele>1273.4</ele>
        <time>2022-06-14T12:16:36Z</time>
      </trkpt>
      <trkpt lat="47.539636865" lon="10.851840069">
        <ele>1272.0</ele>
        <time>2022-06-14T12:16:51Z</time>
      </trkpt>
      <trkpt lat="47.539531002" lon="10.851857336">
        <ele>1270.5</ele>
        <time>2022-06-14T12:17:09Z</time>
      </trkpt>
      <trkpt lat="47.539495463" lon="10.851841830">
        <ele>1269.6</ele>
        <time>2022-06-14T12:17:14Z</time>
      </trkpt>
      <trkpt lat="47.539494457" lon="10.851885751">
        <ele>1268.6</ele>
        <time>2022-06-14T12:17:18Z</time>
      </trkpt>
      <trkpt lat="47.539474508" lon="10.851904275">
        <ele>1265.7</ele>
        <time>2022-06-14T12:17:31Z</time>
      </trkpt>
      <trkpt lat="47.539420109" lon="10.851870161">
        <ele>1262.8</ele>
        <time>2022-06-14T12:17:44Z</time>
      </trkpt>
      <trkpt lat="47.539372081" lon="10.851884913">
        <ele>1259.9</ele>
        <time>2022-06-14T12:17:57Z</time>
      </trkpt>
      <trkpt lat="47.539153397" lon="10.851802602">
        <ele>1253.2</ele>
        <time>2022-06-14T12:18:51Z</time>
      </trkpt>
      <trkpt lat="47.539078211" lon="10.851815091">
        <ele>1250.3</ele>
        <time>2022-06-14T12:19:05Z</time>
      </trkpt>
      <trkpt lat="47.538888277" lon="10.851775780">
        <ele>1244.6</ele>
        <time>2022-06-14T12:19:41Z</time>
      </trkpt>
      <trkpt lat="47.538737922" lon="10.851724621">
        <ele>1230.8</ele>
        <time>2022-06-14T12:20:10Z</time>
      </trkpt>
      <trkpt lat="47.538649062" lon="10.851655050">
        <ele>1232.1</ele>
        <time>2022-06-14T12:20:27Z</time>
      </trkpt>
      <trkpt lat="47.538637924" lon="10.851787540">
        <ele>1222.3</ele>
        <time>2022-06-14T12:20:55Z</time>
      </trkpt>
      <trkpt lat="47.538503455" lon="10.851756227">
        <ele>1219.2</ele>
        <time>2022-06-14T12:21:15Z</time>
      </trkpt>
      <trkpt lat="47.538450568" lon="10.851687923">
        <ele>1221.9</ele>
        <time>2022-06-14T12:21:33Z</time>
      </trkpt>
      <trkpt lat="47.538236018" lon="10.851600638">
        <ele>1219.2</ele>
        <time>2022-06-14T12:21:48Z</time>
      </trkpt>
      <trkpt lat="47.538092127" lon="10.851595571">
        <ele>1213.0</ele>
        <time>2022-06-14T12:22:17Z</time>
      </trkpt>
      <trkpt lat="47.538012260" lon="10.851526318">
        <ele>1213.1</ele>
        <time>2022-06-14T12:22:27Z</time>
      </trkpt>
      <trkpt lat="47.537904771" lon="10.851495956">
        <ele>1208.4</ele>
        <time>2022-06-14T12:23:08Z</time>
      </trkpt>
      <trkpt lat="47.537876933" lon="10.851548128">
        <ele>1203.8</ele>
        <time>2022-06-14T12:23:18Z</time>
      </trkpt>
      <trkpt lat="47.537821472" lon="10.851639191">
        <ele>1195.7</ele>
        <time>2022-06-14T12:23:33Z</time>
      </trkpt>
      <trkpt lat="47.537812050" lon="10.851665435">
        <ele>1193.8</ele>
        <time>2022-06-14T12:23:36Z</time>
      </trkpt>
      <trkpt lat="47.537694281" lon="10.851714439">
        <ele>1184.9</ele>
        <time>2022-06-14T12:23:44Z</time>
      </trkpt>
      <trkpt lat="47.537739247" lon="10.851716022">
        <ele>1187.4</ele>
        <time>2022-06-14T12:23:54Z</time>
      </trkpt>
      <trkpt lat="47.537720617" lon="10.851755230">
        <ele>1184.7</ele>
        <time>2022-06-14T12:24:04Z</time>
      </trkpt>
      <trkpt lat="47.537635434" lon="10.851756586">
        <ele>1188.3</ele>
        <time>2022-06-14T12:24:30Z</time>
      </trkpt>
      <trkpt lat="47.537589753" lon="10.851841243">
        <ele>1186.4</ele>
        <time>2022-06-14T12:24:42Z</time>
      </trkpt>
      <trkpt lat="47.537574917" lon="10.851893127">
        <ele>1186.9</ele>
        <time>2022-06-14T12:24:54Z</time>
      </trkpt>
      <trkpt lat="47.537591429" lon="10.851899749">
        <ele>1188.8</ele>
        <time>2022-06-14T12:25:06Z</time>
      </trkpt>
      <trkpt lat="47.537527140" lon="10.851888014">
        <ele>1190.2</ele>
        <time>2022-06-14T12:25:20Z</time>
      </trkpt>
      <trkpt lat="47.537501994" lon="10.851856666">
        <ele>1191.2</ele>
        <time>2022-06-14T12:25:24Z</time>
      </trkpt>
      <trkpt lat="47.537395209" lon="10.851869406">
        <ele>1191.7</ele>
        <time>2022-06-14T12:25:38Z</time>
      </trkpt>
      <trkpt lat="47.537190355" lon="10.852007037">
        <ele>1194.1</ele>
        <time>2022-06-14T12:26:08Z</time>
      </trkpt>
      <trkpt lat="47.537032189" lon="10.851994045">
        <ele>1191.2</ele>
        <time>2022-06-14T12:26:34Z</time>
      </trkpt>
      <trkpt lat="47.536948873" lon="10.852011982">
        <ele>1189.3</ele>
        <time>2022-06-14T12:26:43Z</time>
      </trkpt>
      <trkpt lat="47.536865808" lon="10.851991028">
        <ele>1186.9</ele>
        <time>2022-06-14T12:26:55Z</time>
      </trkpt>
      <trkpt lat="47.536664894" lon="10.852066129">
        <ele>1185.0</ele>
        <time>2022-06-14T12:27:12Z</time>
      </trkpt>
      <trkpt lat="47.536546709" lon="10.852091946">
        <ele>1185.9</ele>
        <time>2022-06-14T12:27:28Z</time>
      </trkpt>
      <trkpt lat="47.536505805" lon="10.852070740">
        <ele>1185.4</ele>
        <time>2022-06-14T12:27:38Z</time>
      </trkpt>
      <trkpt lat="47.536375048" lon="10.852134526">
        <ele>1184.0</ele>
        <time>2022-06-14T12:27:53Z</time>
      </trkpt>
      <trkpt lat="47.536194585" lon="10.852146680">
        <ele>1180.6</ele>
        <time>2022-06-14T12:28:22Z</time>
      </trkpt>
      <trkpt lat="47.536173631" lon="10.852174424">
        <ele>1179.2</ele>
        <time>2022-06-14T12:28:26Z</time>
      </trkpt>
      <trkpt lat="47.535891077" lon="10.852154810">
        <ele>1175.3</ele>
        <time>2022-06-14T12:28:54Z</time>
      </trkpt>
      <trkpt lat="47.535811029" lon="10.852180207">
        <ele>1174.4</ele>
        <time>2022-06-14T12:29:00Z</time>
      </trkpt>
      <trkpt lat="47.535472233" lon="10.852433089">
        <ele>1169.6</ele>
        <time>2022-06-14T12:29:37Z</time>
      </trkpt>
      <trkpt lat="47.535442561" lon="10.852424875">
        <ele>1169.1</ele>
        <time>2022-06-14T12:29:39Z</time>
      </trkpt>
      <trkpt lat="47.535347594" lon="10.852505090">
        <ele>1167.2</ele>
        <time>2022-06-14T12:29:47Z</time>
      </trkpt>
      <trkpt lat="47.534999494" lon="10.852860566">
        <ele>1166.2</ele>
        <time>2022-06-14T12:30:23Z</time>
      </trkpt>
      <trkpt lat="47.534946688" lon="10.852929549">
        <ele>1166.2</ele>
        <time>2022-06-14T12:30:29Z</time>
      </trkpt>
      <trkpt lat="47.534939311" lon="10.852966178">
        <ele>1165.7</ele>
        <time>2022-06-14T12:30:31Z</time>
      </trkpt>
      <trkpt lat="47.534686429" lon="10.853271447">
        <ele>1162.8</ele>
        <time>2022-06-14T12:31:02Z</time>
      </trkpt>
      <trkpt lat="47.534506386" lon="10.853395751">
        <ele>1162.4</ele>
        <time>2022-06-14T12:31:18Z</time>
      </trkpt>
      <trkpt lat="47.534177732" lon="10.853746450">
        <ele>1159.5</ele>
        <time>2022-06-14T12:31:50Z</time>
      </trkpt>
      <trkpt lat="47.534124758" lon="10.853772601">
        <ele>1159.0</ele>
        <time>2022-06-14T12:31:56Z</time>
      </trkpt>
      <trkpt lat="47.533808593" lon="10.853798920">
        <ele>1157.6</ele>
        <time>2022-06-14T12:32:24Z</time>
      </trkpt>
      <trkpt lat="47.533593262" lon="10.853958428">
        <ele>1156.1</ele>
        <time>2022-06-14T12:32:45Z</time>
      </trkpt>
      <trkpt lat="47.533401484" lon="10.854022047">
        <ele>1155.2</ele>
        <time>2022-06-14T12:33:01Z</time>
      </trkpt>
      <trkpt lat="47.533157738" lon="10.854018861">
        <ele>1154.2</ele>
        <time>2022-06-14T12:33:17Z</time>
      </trkpt>
      <trkpt lat="47.533012144" lon="10.853973096">
        <ele>1153.2</ele>
        <time>2022-06-14T12:33:30Z</time>
      </trkpt>
      <trkpt lat="47.532766890" lon="10.853783330">
        <ele>1151.3</ele>
        <time>2022-06-14T12:33:48Z</time>
      </trkpt>
      <trkpt lat="47.532692207" lon="10.853795400">
        <ele>1150.8</ele>
        <time>2022-06-14T12:33:57Z</time>
      </trkpt>
      <trkpt lat="47.532603359" lon="10.854520351">
        <ele>1149.4</ele>
        <time>2022-06-14T12:34:39Z</time>
      </trkpt>
      <trkpt lat="47.532534460" lon="10.854934165">
        <ele>1148.0</ele>
        <time>2022-06-14T12:35:01Z</time>
      </trkpt>
      <trkpt lat="47.532404456" lon="10.855227113">
        <ele>1146.5</ele>
        <time>2022-06-14T12:35:19Z</time>
      </trkpt>
      <trkpt lat="47.532299347" lon="10.855638161">
        <ele>1145.1</ele>
        <time>2022-06-14T12:35:41Z</time>
      </trkpt>
      <trkpt lat="47.532289373" lon="10.856035296">
        <ele>1143.6</ele>
        <time>2022-06-14T12:36:01Z</time>
      </trkpt>
      <trkpt lat="47.532230532" lon="10.856811292">
        <ele>1141.2</ele>
        <time>2022-06-14T12:36:39Z</time>
      </trkpt>
      <trkpt lat="47.532313094" lon="10.857216222">
        <ele>1140.7</ele>
        <time>2022-06-14T12:37:00Z</time>
      </trkpt>
      <trkpt lat="47.532360954" lon="10.857621403">
        <ele>1140.3</ele>
        <time>2022-06-14T12:37:21Z</time>
      </trkpt>
      <trkpt lat="47.532370677" lon="10.858006887">
        <ele>1139.8</ele>
        <time>2022-06-14T12:37:41Z</time>
      </trkpt>
      <trkpt lat="47.532347962" lon="10.858375607">
        <ele>1138.8</ele>
        <time>2022-06-14T12:38:00Z</time>
      </trkpt>
      <trkpt lat="47.532250397" lon="10.858689425">
        <ele>1137.4</ele>
        <time>2022-06-14T12:38:18Z</time>
      </trkpt>
      <trkpt lat="47.532156771" lon="10.858886065">
        <ele>1136.9</ele>
        <time>2022-06-14T12:38:35Z</time>
      </trkpt>
      <trkpt lat="47.532135062" lon="10.858888999">
        <ele>1136.4</ele>
        <time>2022-06-14T12:40:24Z</time>
      </trkpt>
    </trkseg>
  </trk>
</gpx>
